<?xml version="1.0" encoding="UTF-8" standalone="no" ?>
<gpx xmlns="http://www.topografix.com/GPX/1/1" xmlns:xsi="http://www.w3.org/2001/XMLSchema-instance" xsi:schemaLocation="http://www.topografix.com/GPX/1/1 http://www.topografix.com/GPX/1/1/gpx.xsd" version="1.1" creator="VisuGPX - https://www.visugpx.com">
  <metadata>
    <name>Liancourt Osny 47km</name>
    <desc><![CDATA[Parcours super roulant et excellent pour le cardio !!]]></desc>
  </metadata>
  <trk>
    <name><![CDATA[Liancourt_Osny_47KM]]></name>
    <trkseg>
      <trkpt lat="49.2207" lon="1.90507">
        <ele>115.40000152588</ele>
        <time>2014-03-30T07:11:51Z</time>
      </trkpt>
      <trkpt lat="49.22089" lon="1.90503">
        <ele>114.19999694824</ele>
        <time>2014-03-30T07:12:03Z</time>
      </trkpt>
      <trkpt lat="49.22099" lon="1.90499">
        <ele>114.19999694824</ele>
        <time>2014-03-30T07:12:07Z</time>
      </trkpt>
      <trkpt lat="49.22187" lon="1.9046">
        <ele>117</ele>
        <time>2014-03-30T07:12:45Z</time>
      </trkpt>
      <trkpt lat="49.22244" lon="1.90439">
        <ele>118.40000152588</ele>
        <time>2014-03-30T07:13:11Z</time>
      </trkpt>
      <trkpt lat="49.22258" lon="1.90467">
        <ele>119.40000152588</ele>
        <time>2014-03-30T07:13:22Z</time>
      </trkpt>
      <trkpt lat="49.22265" lon="1.90499">
        <ele>118.80000305176</ele>
        <time>2014-03-30T07:13:29Z</time>
      </trkpt>
      <trkpt lat="49.22288" lon="1.90618">
        <ele>118.19999694824</ele>
        <time>2014-03-30T07:13:46Z</time>
      </trkpt>
      <trkpt lat="49.22298" lon="1.90637">
        <ele>118.19999694824</ele>
        <time>2014-03-30T07:13:51Z</time>
      </trkpt>
      <trkpt lat="49.22354" lon="1.90667">
        <ele>119.80000305176</ele>
        <time>2014-03-30T07:14:10Z</time>
      </trkpt>
      <trkpt lat="49.22485" lon="1.90711">
        <ele>120.80000305176</ele>
        <time>2014-03-30T07:14:48Z</time>
      </trkpt>
      <trkpt lat="49.22609" lon="1.90747">
        <ele>122.80000305176</ele>
        <time>2014-03-30T07:15:21Z</time>
      </trkpt>
      <trkpt lat="49.22734" lon="1.90795">
        <ele>122.19999694824</ele>
        <time>2014-03-30T07:15:55Z</time>
      </trkpt>
      <trkpt lat="49.22886" lon="1.90888">
        <ele>122</ele>
        <time>2014-03-30T07:16:39Z</time>
      </trkpt>
      <trkpt lat="49.22908" lon="1.90901">
        <ele>121.59999847412</ele>
        <time>2014-03-30T07:16:45Z</time>
      </trkpt>
      <trkpt lat="49.22963" lon="1.90936">
        <ele>119.40000152588</ele>
        <time>2014-03-30T07:17:00Z</time>
      </trkpt>
      <trkpt lat="49.23041" lon="1.90981">
        <ele>117.59999847412</ele>
        <time>2014-03-30T07:17:20Z</time>
      </trkpt>
      <trkpt lat="49.23094" lon="1.90999">
        <ele>114.40000152588</ele>
        <time>2014-03-30T07:17:30Z</time>
      </trkpt>
      <trkpt lat="49.23137" lon="1.91012">
        <ele>110.59999847412</ele>
        <time>2014-03-30T07:17:39Z</time>
      </trkpt>
      <trkpt lat="49.23149" lon="1.91008">
        <ele>110</ele>
        <time>2014-03-30T07:17:44Z</time>
      </trkpt>
      <trkpt lat="49.23151" lon="1.91014">
        <ele>109.80000305176</ele>
        <time>2014-03-30T07:17:46Z</time>
      </trkpt>
      <trkpt lat="49.23146" lon="1.9103">
        <ele>109.19999694824</ele>
        <time>2014-03-30T07:17:50Z</time>
      </trkpt>
      <trkpt lat="49.23125" lon="1.91082">
        <ele>108.59999847412</ele>
        <time>2014-03-30T07:18:09Z</time>
      </trkpt>
      <trkpt lat="49.23132" lon="1.91121">
        <ele>105</ele>
        <time>2014-03-30T07:18:19Z</time>
      </trkpt>
      <trkpt lat="49.23135" lon="1.91136">
        <ele>103.40000152588</ele>
        <time>2014-03-30T07:18:21Z</time>
      </trkpt>
      <trkpt lat="49.23142" lon="1.91163">
        <ele>101</ele>
        <time>2014-03-30T07:18:25Z</time>
      </trkpt>
      <trkpt lat="49.23146" lon="1.91202">
        <ele>97.800003051758</ele>
        <time>2014-03-30T07:18:29Z</time>
      </trkpt>
      <trkpt lat="49.23153" lon="1.91248">
        <ele>92.400001525879</ele>
        <time>2014-03-30T07:18:33Z</time>
      </trkpt>
      <trkpt lat="49.23154" lon="1.91259">
        <ele>91.599998474121</ele>
        <time>2014-03-30T07:18:34Z</time>
      </trkpt>
      <trkpt lat="49.23159" lon="1.91292">
        <ele>88.599998474121</ele>
        <time>2014-03-30T07:18:37Z</time>
      </trkpt>
      <trkpt lat="49.2316" lon="1.91317">
        <ele>86.199996948242</ele>
        <time>2014-03-30T07:18:39Z</time>
      </trkpt>
      <trkpt lat="49.23166" lon="1.91376">
        <ele>83.599998474121</ele>
        <time>2014-03-30T07:18:44Z</time>
      </trkpt>
      <trkpt lat="49.23189" lon="1.91475">
        <ele>80.199996948242</ele>
        <time>2014-03-30T07:18:54Z</time>
      </trkpt>
      <trkpt lat="49.23193" lon="1.91483">
        <ele>80</ele>
        <time>2014-03-30T07:18:55Z</time>
      </trkpt>
      <trkpt lat="49.23198" lon="1.91502">
        <ele>78.800003051758</ele>
        <time>2014-03-30T07:18:57Z</time>
      </trkpt>
      <trkpt lat="49.23203" lon="1.91523">
        <ele>79.800003051758</ele>
        <time>2014-03-30T07:19:00Z</time>
      </trkpt>
      <trkpt lat="49.23237" lon="1.91663">
        <ele>77.400001525879</ele>
        <time>2014-03-30T07:19:17Z</time>
      </trkpt>
      <trkpt lat="49.23234" lon="1.91741">
        <ele>74.400001525879</ele>
        <time>2014-03-30T07:19:26Z</time>
      </trkpt>
      <trkpt lat="49.23236" lon="1.91821">
        <ele>73</ele>
        <time>2014-03-30T07:19:34Z</time>
      </trkpt>
      <trkpt lat="49.2324" lon="1.91916">
        <ele>74</ele>
        <time>2014-03-30T07:19:45Z</time>
      </trkpt>
      <trkpt lat="49.2325" lon="1.91999">
        <ele>77.199996948242</ele>
        <time>2014-03-30T07:19:58Z</time>
      </trkpt>
      <trkpt lat="49.23252" lon="1.92029">
        <ele>78.800003051758</ele>
        <time>2014-03-30T07:20:05Z</time>
      </trkpt>
      <trkpt lat="49.23252" lon="1.92075">
        <ele>82.199996948242</ele>
        <time>2014-03-30T07:20:18Z</time>
      </trkpt>
      <trkpt lat="49.23251" lon="1.92116">
        <ele>85.800003051758</ele>
        <time>2014-03-30T07:20:30Z</time>
      </trkpt>
      <trkpt lat="49.23252" lon="1.92152">
        <ele>89</ele>
        <time>2014-03-30T07:20:41Z</time>
      </trkpt>
      <trkpt lat="49.23256" lon="1.92168">
        <ele>90</ele>
        <time>2014-03-30T07:20:46Z</time>
      </trkpt>
      <trkpt lat="49.23261" lon="1.92252">
        <ele>93.400001525879</ele>
        <time>2014-03-30T07:21:05Z</time>
      </trkpt>
      <trkpt lat="49.23253" lon="1.92301">
        <ele>97.199996948242</ele>
        <time>2014-03-30T07:21:21Z</time>
      </trkpt>
      <trkpt lat="49.23237" lon="1.92332">
        <ele>100.59999847412</ele>
        <time>2014-03-30T07:21:32Z</time>
      </trkpt>
      <trkpt lat="49.23222" lon="1.92345">
        <ele>102.40000152588</ele>
        <time>2014-03-30T07:21:44Z</time>
      </trkpt>
      <trkpt lat="49.23222" lon="1.92348">
        <ele>102.59999847412</ele>
        <time>2014-03-30T07:21:45Z</time>
      </trkpt>
      <trkpt lat="49.23222" lon="1.92358">
        <ele>102.40000152588</ele>
        <time>2014-03-30T07:21:48Z</time>
      </trkpt>
      <trkpt lat="49.23223" lon="1.92375">
        <ele>101.40000152588</ele>
        <time>2014-03-30T07:21:55Z</time>
      </trkpt>
      <trkpt lat="49.2323" lon="1.92408">
        <ele>98.400001525879</ele>
        <time>2014-03-30T07:22:12Z</time>
      </trkpt>
      <trkpt lat="49.23247" lon="1.92404">
        <ele>96</ele>
        <time>2014-03-30T07:22:25Z</time>
      </trkpt>
      <trkpt lat="49.23249" lon="1.92401">
        <ele>95.800003051758</ele>
        <time>2014-03-30T07:22:26Z</time>
      </trkpt>
      <trkpt lat="49.23259" lon="1.9238">
        <ele>94.599998474121</ele>
        <time>2014-03-30T07:22:32Z</time>
      </trkpt>
      <trkpt lat="49.23265" lon="1.92394">
        <ele>92.800003051758</ele>
        <time>2014-03-30T07:22:38Z</time>
      </trkpt>
      <trkpt lat="49.23251" lon="1.92431">
        <ele>89.400001525879</ele>
        <time>2014-03-30T07:22:47Z</time>
      </trkpt>
      <trkpt lat="49.23251" lon="1.92473">
        <ele>85.599998474121</ele>
        <time>2014-03-30T07:22:53Z</time>
      </trkpt>
      <trkpt lat="49.23251" lon="1.92496">
        <ele>84.199996948242</ele>
        <time>2014-03-30T07:22:55Z</time>
      </trkpt>
      <trkpt lat="49.23252" lon="1.9252">
        <ele>80.800003051758</ele>
        <time>2014-03-30T07:22:57Z</time>
      </trkpt>
      <trkpt lat="49.23254" lon="1.92548">
        <ele>78.400001525879</ele>
        <time>2014-03-30T07:22:59Z</time>
      </trkpt>
      <trkpt lat="49.23248" lon="1.9259">
        <ele>75.199996948242</ele>
        <time>2014-03-30T07:23:02Z</time>
      </trkpt>
      <trkpt lat="49.23226" lon="1.92653">
        <ele>71.400001525879</ele>
        <time>2014-03-30T07:23:08Z</time>
      </trkpt>
      <trkpt lat="49.2324" lon="1.92665">
        <ele>69</ele>
        <time>2014-03-30T07:23:13Z</time>
      </trkpt>
      <trkpt lat="49.23248" lon="1.92667">
        <ele>68.599998474121</ele>
        <time>2014-03-30T07:23:15Z</time>
      </trkpt>
      <trkpt lat="49.23267" lon="1.92678">
        <ele>66.800003051758</ele>
        <time>2014-03-30T07:23:20Z</time>
      </trkpt>
      <trkpt lat="49.23291" lon="1.92705">
        <ele>65.199996948242</ele>
        <time>2014-03-30T07:23:26Z</time>
      </trkpt>
      <trkpt lat="49.23295" lon="1.92711">
        <ele>64.800003051758</ele>
        <time>2014-03-30T07:23:27Z</time>
      </trkpt>
      <trkpt lat="49.23319" lon="1.92749">
        <ele>63.599998474121</ele>
        <time>2014-03-30T07:23:40Z</time>
      </trkpt>
      <trkpt lat="49.2333" lon="1.92759">
        <ele>64.599998474121</ele>
        <time>2014-03-30T07:24:47Z</time>
      </trkpt>
      <trkpt lat="49.23358" lon="1.92797">
        <ele>63.599998474121</ele>
        <time>2014-03-30T07:25:01Z</time>
      </trkpt>
      <trkpt lat="49.23395" lon="1.92861">
        <ele>61.799999237061</ele>
        <time>2014-03-30T07:25:17Z</time>
      </trkpt>
      <trkpt lat="49.23409" lon="1.92881">
        <ele>61.200000762939</ele>
        <time>2014-03-30T07:25:21Z</time>
      </trkpt>
      <trkpt lat="49.23446" lon="1.92935">
        <ele>59.599998474121</ele>
        <time>2014-03-30T07:25:37Z</time>
      </trkpt>
      <trkpt lat="49.23481" lon="1.92987">
        <ele>60.200000762939</ele>
        <time>2014-03-30T07:25:50Z</time>
      </trkpt>
      <trkpt lat="49.23503" lon="1.93011">
        <ele>60.200000762939</ele>
        <time>2014-03-30T07:25:56Z</time>
      </trkpt>
      <trkpt lat="49.2352" lon="1.93031">
        <ele>60</ele>
        <time>2014-03-30T07:26:02Z</time>
      </trkpt>
      <trkpt lat="49.23505" lon="1.93096">
        <ele>59</ele>
        <time>2014-03-30T07:26:17Z</time>
      </trkpt>
      <trkpt lat="49.23488" lon="1.93127">
        <ele>58.799999237061</ele>
        <time>2014-03-30T07:26:23Z</time>
      </trkpt>
      <trkpt lat="49.23427" lon="1.93259">
        <ele>58.599998474121</ele>
        <time>2014-03-30T07:26:46Z</time>
      </trkpt>
      <trkpt lat="49.2341" lon="1.93295">
        <ele>58.400001525879</ele>
        <time>2014-03-30T07:26:53Z</time>
      </trkpt>
      <trkpt lat="49.2332" lon="1.93483">
        <ele>57.799999237061</ele>
        <time>2014-03-30T07:27:31Z</time>
      </trkpt>
      <trkpt lat="49.23317" lon="1.93487">
        <ele>57.799999237061</ele>
        <time>2014-03-30T07:27:32Z</time>
      </trkpt>
      <trkpt lat="49.23302" lon="1.93518">
        <ele>57.200000762939</ele>
        <time>2014-03-30T07:27:38Z</time>
      </trkpt>
      <trkpt lat="49.23217" lon="1.93691">
        <ele>57.400001525879</ele>
        <time>2014-03-30T07:28:14Z</time>
      </trkpt>
      <trkpt lat="49.23107" lon="1.93931">
        <ele>59.599998474121</ele>
        <time>2014-03-30T07:29:00Z</time>
      </trkpt>
      <trkpt lat="49.22981" lon="1.94199">
        <ele>58.400001525879</ele>
        <time>2014-03-30T07:29:46Z</time>
      </trkpt>
      <trkpt lat="49.22962" lon="1.94297">
        <ele>58.799999237061</ele>
        <time>2014-03-30T07:29:59Z</time>
      </trkpt>
      <trkpt lat="49.22918" lon="1.94412">
        <ele>59.200000762939</ele>
        <time>2014-03-30T07:32:01Z</time>
      </trkpt>
      <trkpt lat="49.22896" lon="1.94457">
        <ele>58.599998474121</ele>
        <time>2014-03-30T07:32:13Z</time>
      </trkpt>
      <trkpt lat="49.22867" lon="1.94507">
        <ele>58</ele>
        <time>2014-03-30T07:32:23Z</time>
      </trkpt>
      <trkpt lat="49.22864" lon="1.94515">
        <ele>58</ele>
        <time>2014-03-30T07:32:24Z</time>
      </trkpt>
      <trkpt lat="49.22838" lon="1.94564">
        <ele>58.200000762939</ele>
        <time>2014-03-30T07:32:31Z</time>
      </trkpt>
      <trkpt lat="49.22729" lon="1.94718">
        <ele>58.400001525879</ele>
        <time>2014-03-30T07:32:58Z</time>
      </trkpt>
      <trkpt lat="49.22673" lon="1.94789">
        <ele>59</ele>
        <time>2014-03-30T07:33:12Z</time>
      </trkpt>
      <trkpt lat="49.22603" lon="1.94765">
        <ele>59</ele>
        <time>2014-03-30T07:33:27Z</time>
      </trkpt>
      <trkpt lat="49.22566" lon="1.94742">
        <ele>60.799999237061</ele>
        <time>2014-03-30T07:33:36Z</time>
      </trkpt>
      <trkpt lat="49.22549" lon="1.94751">
        <ele>62.400001525879</ele>
        <time>2014-03-30T07:33:41Z</time>
      </trkpt>
      <trkpt lat="49.22544" lon="1.94756">
        <ele>62.599998474121</ele>
        <time>2014-03-30T07:33:43Z</time>
      </trkpt>
      <trkpt lat="49.22533" lon="1.94743">
        <ele>63.599998474121</ele>
        <time>2014-03-30T07:33:48Z</time>
      </trkpt>
      <trkpt lat="49.22514" lon="1.94679">
        <ele>66</ele>
        <time>2014-03-30T07:34:03Z</time>
      </trkpt>
      <trkpt lat="49.22504" lon="1.94648">
        <ele>67.199996948242</ele>
        <time>2014-03-30T07:34:10Z</time>
      </trkpt>
      <trkpt lat="49.22488" lon="1.94611">
        <ele>69.199996948242</ele>
        <time>2014-03-30T07:34:19Z</time>
      </trkpt>
      <trkpt lat="49.22478" lon="1.946">
        <ele>70.400001525879</ele>
        <time>2014-03-30T07:34:23Z</time>
      </trkpt>
      <trkpt lat="49.22447" lon="1.94615">
        <ele>72.599998474121</ele>
        <time>2014-03-30T07:34:33Z</time>
      </trkpt>
      <trkpt lat="49.22446" lon="1.94619">
        <ele>72.800003051758</ele>
        <time>2014-03-30T07:34:34Z</time>
      </trkpt>
      <trkpt lat="49.22411" lon="1.94676">
        <ele>74.800003051758</ele>
        <time>2014-03-30T07:34:52Z</time>
      </trkpt>
      <trkpt lat="49.22399" lon="1.94654">
        <ele>76.800003051758</ele>
        <time>2014-03-30T07:35:02Z</time>
      </trkpt>
      <trkpt lat="49.22428" lon="1.94582">
        <ele>79.400001525879</ele>
        <time>2014-03-30T07:35:23Z</time>
      </trkpt>
      <trkpt lat="49.22467" lon="1.94488">
        <ele>83.800003051758</ele>
        <time>2014-03-30T07:35:49Z</time>
      </trkpt>
      <trkpt lat="49.22467" lon="1.94484">
        <ele>85.199996948242</ele>
        <time>2014-03-30T07:35:50Z</time>
      </trkpt>
      <trkpt lat="49.22467" lon="1.94479">
        <ele>85.400001525879</ele>
        <time>2014-03-30T07:35:51Z</time>
      </trkpt>
      <trkpt lat="49.22457" lon="1.944">
        <ele>85.599998474121</ele>
        <time>2014-03-30T07:36:12Z</time>
      </trkpt>
      <trkpt lat="49.2244" lon="1.94348">
        <ele>88.599998474121</ele>
        <time>2014-03-30T07:36:27Z</time>
      </trkpt>
      <trkpt lat="49.22432" lon="1.94327">
        <ele>89.800003051758</ele>
        <time>2014-03-30T07:36:34Z</time>
      </trkpt>
      <trkpt lat="49.2242" lon="1.94305">
        <ele>91.199996948242</ele>
        <time>2014-03-30T07:36:41Z</time>
      </trkpt>
      <trkpt lat="49.22413" lon="1.94323">
        <ele>92.800003051758</ele>
        <time>2014-03-30T07:36:49Z</time>
      </trkpt>
      <trkpt lat="49.22412" lon="1.9434">
        <ele>93.400001525879</ele>
        <time>2014-03-30T07:36:55Z</time>
      </trkpt>
      <trkpt lat="49.22407" lon="1.94413">
        <ele>95.599998474121</ele>
        <time>2014-03-30T07:37:17Z</time>
      </trkpt>
      <trkpt lat="49.22405" lon="1.94417">
        <ele>95.800003051758</ele>
        <time>2014-03-30T07:37:20Z</time>
      </trkpt>
      <trkpt lat="49.22393" lon="1.94414">
        <ele>98.800003051758</ele>
        <time>2014-03-30T07:37:31Z</time>
      </trkpt>
      <trkpt lat="49.22361" lon="1.94386">
        <ele>102</ele>
        <time>2014-03-30T07:37:52Z</time>
      </trkpt>
      <trkpt lat="49.2233" lon="1.94374">
        <ele>105.40000152588</ele>
        <time>2014-03-30T07:38:07Z</time>
      </trkpt>
      <trkpt lat="49.22318" lon="1.94365">
        <ele>107</ele>
        <time>2014-03-30T07:38:14Z</time>
      </trkpt>
      <trkpt lat="49.22315" lon="1.94362">
        <ele>107.19999694824</ele>
        <time>2014-03-30T07:38:16Z</time>
      </trkpt>
      <trkpt lat="49.22304" lon="1.94389">
        <ele>105.19999694824</ele>
        <time>2014-03-30T08:08:26Z</time>
      </trkpt>
      <trkpt lat="49.2229" lon="1.94428">
        <ele>107</ele>
        <time>2014-03-30T08:08:33Z</time>
      </trkpt>
      <trkpt lat="49.22288" lon="1.94434">
        <ele>107.19999694824</ele>
        <time>2014-03-30T08:08:34Z</time>
      </trkpt>
      <trkpt lat="49.22277" lon="1.9446">
        <ele>108.59999847412</ele>
        <time>2014-03-30T08:08:38Z</time>
      </trkpt>
      <trkpt lat="49.22259" lon="1.94489">
        <ele>110.19999694824</ele>
        <time>2014-03-30T08:08:43Z</time>
      </trkpt>
      <trkpt lat="49.22251" lon="1.945">
        <ele>110.59999847412</ele>
        <time>2014-03-30T08:08:45Z</time>
      </trkpt>
      <trkpt lat="49.22199" lon="1.94526">
        <ele>114</ele>
        <time>2014-03-30T08:08:55Z</time>
      </trkpt>
      <trkpt lat="49.22154" lon="1.94526">
        <ele>118</ele>
        <time>2014-03-30T08:09:05Z</time>
      </trkpt>
      <trkpt lat="49.22139" lon="1.94531">
        <ele>119.40000152588</ele>
        <time>2014-03-30T08:09:09Z</time>
      </trkpt>
      <trkpt lat="49.22135" lon="1.94565">
        <ele>120.80000305176</ele>
        <time>2014-03-30T08:09:14Z</time>
      </trkpt>
      <trkpt lat="49.22126" lon="1.94619">
        <ele>120.19999694824</ele>
        <time>2014-03-30T08:09:20Z</time>
      </trkpt>
      <trkpt lat="49.22109" lon="1.94687">
        <ele>119.40000152588</ele>
        <time>2014-03-30T08:09:27Z</time>
      </trkpt>
      <trkpt lat="49.2209" lon="1.94752">
        <ele>119</ele>
        <time>2014-03-30T08:09:33Z</time>
      </trkpt>
      <trkpt lat="49.22059" lon="1.94821">
        <ele>118.40000152588</ele>
        <time>2014-03-30T08:09:40Z</time>
      </trkpt>
      <trkpt lat="49.21988" lon="1.94919">
        <ele>117.40000152588</ele>
        <time>2014-03-30T08:09:52Z</time>
      </trkpt>
      <trkpt lat="49.21844" lon="1.95026">
        <ele>116.59999847412</ele>
        <time>2014-03-30T08:10:12Z</time>
      </trkpt>
      <trkpt lat="49.218" lon="1.95058">
        <ele>116.59999847412</ele>
        <time>2014-03-30T08:10:18Z</time>
      </trkpt>
      <trkpt lat="49.21773" lon="1.9509">
        <ele>115.80000305176</ele>
        <time>2014-03-30T08:10:22Z</time>
      </trkpt>
      <trkpt lat="49.21713" lon="1.95128">
        <ele>113</ele>
        <time>2014-03-30T08:10:29Z</time>
      </trkpt>
      <trkpt lat="49.2169" lon="1.95196">
        <ele>110.19999694824</ele>
        <time>2014-03-30T08:10:35Z</time>
      </trkpt>
      <trkpt lat="49.21693" lon="1.95221">
        <ele>110</ele>
        <time>2014-03-30T08:10:37Z</time>
      </trkpt>
      <trkpt lat="49.21696" lon="1.9527">
        <ele>110.40000152588</ele>
        <time>2014-03-30T08:10:41Z</time>
      </trkpt>
      <trkpt lat="49.21682" lon="1.95329">
        <ele>111.59999847412</ele>
        <time>2014-03-30T08:10:47Z</time>
      </trkpt>
      <trkpt lat="49.21679" lon="1.95338">
        <ele>111.80000305176</ele>
        <time>2014-03-30T08:10:48Z</time>
      </trkpt>
      <trkpt lat="49.21676" lon="1.95346">
        <ele>112</ele>
        <time>2014-03-30T08:10:49Z</time>
      </trkpt>
      <trkpt lat="49.21639" lon="1.95442">
        <ele>114.19999694824</ele>
        <time>2014-03-30T08:11:02Z</time>
      </trkpt>
      <trkpt lat="49.216" lon="1.95543">
        <ele>115.80000305176</ele>
        <time>2014-03-30T08:11:16Z</time>
      </trkpt>
      <trkpt lat="49.21584" lon="1.95588">
        <ele>115.19999694824</ele>
        <time>2014-03-30T08:11:21Z</time>
      </trkpt>
      <trkpt lat="49.21576" lon="1.95613">
        <ele>115.59999847412</ele>
        <time>2014-03-30T08:11:24Z</time>
      </trkpt>
      <trkpt lat="49.21551" lon="1.95708">
        <ele>119</ele>
        <time>2014-03-30T08:11:36Z</time>
      </trkpt>
      <trkpt lat="49.21549" lon="1.95716">
        <ele>119.19999694824</ele>
        <time>2014-03-30T08:11:37Z</time>
      </trkpt>
      <trkpt lat="49.21537" lon="1.9578">
        <ele>121.19999694824</ele>
        <time>2014-03-30T08:11:45Z</time>
      </trkpt>
      <trkpt lat="49.21522" lon="1.95824">
        <ele>122.40000152588</ele>
        <time>2014-03-30T08:11:51Z</time>
      </trkpt>
      <trkpt lat="49.21478" lon="1.95891">
        <ele>125.80000305176</ele>
        <time>2014-03-30T08:12:03Z</time>
      </trkpt>
      <trkpt lat="49.21466" lon="1.95906">
        <ele>126</ele>
        <time>2014-03-30T08:12:06Z</time>
      </trkpt>
      <trkpt lat="49.21447" lon="1.95959">
        <ele>127.80000305176</ele>
        <time>2014-03-30T08:12:14Z</time>
      </trkpt>
      <trkpt lat="49.21439" lon="1.9601">
        <ele>128.80000305176</ele>
        <time>2014-03-30T08:12:21Z</time>
      </trkpt>
      <trkpt lat="49.21421" lon="1.96114">
        <ele>130.19999694824</ele>
        <time>2014-03-30T08:12:35Z</time>
      </trkpt>
      <trkpt lat="49.21385" lon="1.96221">
        <ele>131.39999389648</ele>
        <time>2014-03-30T08:12:51Z</time>
      </trkpt>
      <trkpt lat="49.21298" lon="1.96443">
        <ele>134.39999389648</ele>
        <time>2014-03-30T08:13:25Z</time>
      </trkpt>
      <trkpt lat="49.21229" lon="1.96683">
        <ele>136.80000305176</ele>
        <time>2014-03-30T08:13:58Z</time>
      </trkpt>
      <trkpt lat="49.21173" lon="1.96759">
        <ele>137.39999389648</ele>
        <time>2014-03-30T08:14:11Z</time>
      </trkpt>
      <trkpt lat="49.21133" lon="1.96812">
        <ele>138</ele>
        <time>2014-03-30T08:14:21Z</time>
      </trkpt>
      <trkpt lat="49.21112" lon="1.96848">
        <ele>138.80000305176</ele>
        <time>2014-03-30T08:14:28Z</time>
      </trkpt>
      <trkpt lat="49.21085" lon="1.96897">
        <ele>140.80000305176</ele>
        <time>2014-03-30T08:14:38Z</time>
      </trkpt>
      <trkpt lat="49.21075" lon="1.96917">
        <ele>141.39999389648</ele>
        <time>2014-03-30T08:14:42Z</time>
      </trkpt>
      <trkpt lat="49.21001" lon="1.97066">
        <ele>141.80000305176</ele>
        <time>2014-03-30T08:15:09Z</time>
      </trkpt>
      <trkpt lat="49.2095" lon="1.97171">
        <ele>142.60000610352</ele>
        <time>2014-03-30T08:15:29Z</time>
      </trkpt>
      <trkpt lat="49.20946" lon="1.97199">
        <ele>142.80000305176</ele>
        <time>2014-03-30T08:15:33Z</time>
      </trkpt>
      <trkpt lat="49.20945" lon="1.97214">
        <ele>142.39999389648</ele>
        <time>2014-03-30T08:15:35Z</time>
      </trkpt>
      <trkpt lat="49.20934" lon="1.97281">
        <ele>140.60000610352</ele>
        <time>2014-03-30T08:15:43Z</time>
      </trkpt>
      <trkpt lat="49.20897" lon="1.97343">
        <ele>139.60000610352</ele>
        <time>2014-03-30T08:15:53Z</time>
      </trkpt>
      <trkpt lat="49.20869" lon="1.97412">
        <ele>139.39999389648</ele>
        <time>2014-03-30T08:16:05Z</time>
      </trkpt>
      <trkpt lat="49.20857" lon="1.97532">
        <ele>140.60000610352</ele>
        <time>2014-03-30T08:16:28Z</time>
      </trkpt>
      <trkpt lat="49.20866" lon="1.97568">
        <ele>139.80000305176</ele>
        <time>2014-03-30T08:16:35Z</time>
      </trkpt>
      <trkpt lat="49.20873" lon="1.97586">
        <ele>139.39999389648</ele>
        <time>2014-03-30T08:16:38Z</time>
      </trkpt>
      <trkpt lat="49.20855" lon="1.97648">
        <ele>138</ele>
        <time>2014-03-30T08:16:51Z</time>
      </trkpt>
      <trkpt lat="49.20816" lon="1.97629">
        <ele>139.39999389648</ele>
        <time>2014-03-30T08:17:00Z</time>
      </trkpt>
      <trkpt lat="49.20812" lon="1.97628">
        <ele>139.39999389648</ele>
        <time>2014-03-30T08:17:01Z</time>
      </trkpt>
      <trkpt lat="49.20807" lon="1.97628">
        <ele>139.60000610352</ele>
        <time>2014-03-30T08:17:02Z</time>
      </trkpt>
      <trkpt lat="49.20751" lon="1.97657">
        <ele>140.19999694824</ele>
        <time>2014-03-30T08:17:17Z</time>
      </trkpt>
      <trkpt lat="49.20727" lon="1.97731">
        <ele>140.60000610352</ele>
        <time>2014-03-30T08:17:31Z</time>
      </trkpt>
      <trkpt lat="49.20687" lon="1.97808">
        <ele>141.80000305176</ele>
        <time>2014-03-30T08:17:48Z</time>
      </trkpt>
      <trkpt lat="49.20685" lon="1.97842">
        <ele>141</ele>
        <time>2014-03-30T08:17:53Z</time>
      </trkpt>
      <trkpt lat="49.20684" lon="1.97897">
        <ele>137.19999694824</ele>
        <time>2014-03-30T08:17:58Z</time>
      </trkpt>
      <trkpt lat="49.20682" lon="1.97984">
        <ele>133.80000305176</ele>
        <time>2014-03-30T08:18:04Z</time>
      </trkpt>
      <trkpt lat="49.2068" lon="1.98053">
        <ele>130.39999389648</ele>
        <time>2014-03-30T08:18:08Z</time>
      </trkpt>
      <trkpt lat="49.20678" lon="1.98129">
        <ele>126.19999694824</ele>
        <time>2014-03-30T08:18:12Z</time>
      </trkpt>
      <trkpt lat="49.20676" lon="1.98202">
        <ele>122.80000305176</ele>
        <time>2014-03-30T08:18:16Z</time>
      </trkpt>
      <trkpt lat="49.20674" lon="1.9828">
        <ele>121.59999847412</ele>
        <time>2014-03-30T08:18:21Z</time>
      </trkpt>
      <trkpt lat="49.20672" lon="1.98342">
        <ele>121</ele>
        <time>2014-03-30T08:18:26Z</time>
      </trkpt>
      <trkpt lat="49.2069" lon="1.98406">
        <ele>120.80000305176</ele>
        <time>2014-03-30T08:18:34Z</time>
      </trkpt>
      <trkpt lat="49.20767" lon="1.98494">
        <ele>123</ele>
        <time>2014-03-30T08:18:52Z</time>
      </trkpt>
      <trkpt lat="49.20924" lon="1.98682">
        <ele>124.59999847412</ele>
        <time>2014-03-30T08:19:33Z</time>
      </trkpt>
      <trkpt lat="49.20928" lon="1.98685">
        <ele>124.80000305176</ele>
        <time>2014-03-30T08:19:34Z</time>
      </trkpt>
      <trkpt lat="49.20944" lon="1.98704">
        <ele>125</ele>
        <time>2014-03-30T08:19:39Z</time>
      </trkpt>
      <trkpt lat="49.21028" lon="1.98816">
        <ele>126.59999847412</ele>
        <time>2014-03-30T08:20:01Z</time>
      </trkpt>
      <trkpt lat="49.21092" lon="1.9891">
        <ele>126.80000305176</ele>
        <time>2014-03-30T08:20:18Z</time>
      </trkpt>
      <trkpt lat="49.21117" lon="1.99005">
        <ele>127.19999694824</ele>
        <time>2014-03-30T08:20:31Z</time>
      </trkpt>
      <trkpt lat="49.21177" lon="1.99254">
        <ele>126</ele>
        <time>2014-03-30T08:21:02Z</time>
      </trkpt>
      <trkpt lat="49.21242" lon="1.99428">
        <ele>126.59999847412</ele>
        <time>2014-03-30T08:21:24Z</time>
      </trkpt>
      <trkpt lat="49.21328" lon="1.99635">
        <ele>127.80000305176</ele>
        <time>2014-03-30T08:21:44Z</time>
      </trkpt>
      <trkpt lat="49.21347" lon="1.99734">
        <ele>129</ele>
        <time>2014-03-30T08:21:56Z</time>
      </trkpt>
      <trkpt lat="49.21348" lon="1.99781">
        <ele>129.39999389648</ele>
        <time>2014-03-30T08:22:01Z</time>
      </trkpt>
      <trkpt lat="49.21353" lon="1.9995">
        <ele>128.39999389648</ele>
        <time>2014-03-30T08:22:15Z</time>
      </trkpt>
      <trkpt lat="49.21349" lon="2.00052">
        <ele>127.40000152588</ele>
        <time>2014-03-30T08:22:23Z</time>
      </trkpt>
      <trkpt lat="49.21348" lon="2.00127">
        <ele>127.59999847412</ele>
        <time>2014-03-30T08:22:29Z</time>
      </trkpt>
      <trkpt lat="49.21358" lon="2.00183">
        <ele>126.59999847412</ele>
        <time>2014-03-30T08:22:34Z</time>
      </trkpt>
      <trkpt lat="49.21423" lon="2.00445">
        <ele>126</ele>
        <time>2014-03-30T08:23:03Z</time>
      </trkpt>
      <trkpt lat="49.21452" lon="2.00567">
        <ele>126.19999694824</ele>
        <time>2014-03-30T08:23:17Z</time>
      </trkpt>
      <trkpt lat="49.21463" lon="2.00726">
        <ele>125.40000152588</ele>
        <time>2014-03-30T08:23:33Z</time>
      </trkpt>
      <trkpt lat="49.2147" lon="2.00823">
        <ele>124.19999694824</ele>
        <time>2014-03-30T08:23:42Z</time>
      </trkpt>
      <trkpt lat="49.21502" lon="2.00976">
        <ele>121.19999694824</ele>
        <time>2014-03-30T08:23:55Z</time>
      </trkpt>
      <trkpt lat="49.21521" lon="2.01062">
        <ele>119.19999694824</ele>
        <time>2014-03-30T08:24:02Z</time>
      </trkpt>
      <trkpt lat="49.2154" lon="2.01104">
        <ele>117.40000152588</ele>
        <time>2014-03-30T08:24:06Z</time>
      </trkpt>
      <trkpt lat="49.21563" lon="2.01147">
        <ele>114.19999694824</ele>
        <time>2014-03-30T08:24:10Z</time>
      </trkpt>
      <trkpt lat="49.21576" lon="2.01171">
        <ele>112.19999694824</ele>
        <time>2014-03-30T08:24:12Z</time>
      </trkpt>
      <trkpt lat="49.21597" lon="2.01235">
        <ele>108.59999847412</ele>
        <time>2014-03-30T08:24:16Z</time>
      </trkpt>
      <trkpt lat="49.216" lon="2.01253">
        <ele>107.59999847412</ele>
        <time>2014-03-30T08:24:17Z</time>
      </trkpt>
      <trkpt lat="49.21607" lon="2.01288">
        <ele>104.59999847412</ele>
        <time>2014-03-30T08:24:19Z</time>
      </trkpt>
      <trkpt lat="49.2161" lon="2.01344">
        <ele>100.80000305176</ele>
        <time>2014-03-30T08:24:22Z</time>
      </trkpt>
      <trkpt lat="49.21608" lon="2.01381">
        <ele>97.800003051758</ele>
        <time>2014-03-30T08:24:24Z</time>
      </trkpt>
      <trkpt lat="49.21606" lon="2.01418">
        <ele>95</ele>
        <time>2014-03-30T08:24:26Z</time>
      </trkpt>
      <trkpt lat="49.21607" lon="2.01456">
        <ele>93</ele>
        <time>2014-03-30T08:24:28Z</time>
      </trkpt>
      <trkpt lat="49.21615" lon="2.01512">
        <ele>89.599998474121</ele>
        <time>2014-03-30T08:24:31Z</time>
      </trkpt>
      <trkpt lat="49.21618" lon="2.01528">
        <ele>88.400001525879</ele>
        <time>2014-03-30T08:24:32Z</time>
      </trkpt>
      <trkpt lat="49.2163" lon="2.01565">
        <ele>85.400001525879</ele>
        <time>2014-03-30T08:24:35Z</time>
      </trkpt>
      <trkpt lat="49.21633" lon="2.01574">
        <ele>84.800003051758</ele>
        <time>2014-03-30T08:24:36Z</time>
      </trkpt>
      <trkpt lat="49.21643" lon="2.01588">
        <ele>82.599998474121</ele>
        <time>2014-03-30T08:24:53Z</time>
      </trkpt>
      <trkpt lat="49.21644" lon="2.01588">
        <ele>82.800003051758</ele>
        <time>2014-03-30T08:26:38Z</time>
      </trkpt>
      <trkpt lat="49.21621" lon="2.01604">
        <ele>82.599998474121</ele>
        <time>2014-03-30T08:26:45Z</time>
      </trkpt>
      <trkpt lat="49.2153" lon="2.01669">
        <ele>81.800003051758</ele>
        <time>2014-03-30T08:27:03Z</time>
      </trkpt>
      <trkpt lat="49.21521" lon="2.01681">
        <ele>81.800003051758</ele>
        <time>2014-03-30T08:27:05Z</time>
      </trkpt>
      <trkpt lat="49.21448" lon="2.01763">
        <ele>79.199996948242</ele>
        <time>2014-03-30T08:27:19Z</time>
      </trkpt>
      <trkpt lat="49.21397" lon="2.0182">
        <ele>77</ele>
        <time>2014-03-30T08:27:28Z</time>
      </trkpt>
      <trkpt lat="49.21359" lon="2.01864">
        <ele>76</ele>
        <time>2014-03-30T08:27:35Z</time>
      </trkpt>
      <trkpt lat="49.21326" lon="2.01958">
        <ele>77</ele>
        <time>2014-03-30T08:27:47Z</time>
      </trkpt>
      <trkpt lat="49.21322" lon="2.01973">
        <ele>77.199996948242</ele>
        <time>2014-03-30T08:27:49Z</time>
      </trkpt>
      <trkpt lat="49.21314" lon="2.02018">
        <ele>78.400001525879</ele>
        <time>2014-03-30T08:27:55Z</time>
      </trkpt>
      <trkpt lat="49.21304" lon="2.02051">
        <ele>79.400001525879</ele>
        <time>2014-03-30T08:28:00Z</time>
      </trkpt>
      <trkpt lat="49.21262" lon="2.02275">
        <ele>82</ele>
        <time>2014-03-30T08:28:29Z</time>
      </trkpt>
      <trkpt lat="49.21262" lon="2.02283">
        <ele>82.199996948242</ele>
        <time>2014-03-30T08:28:30Z</time>
      </trkpt>
      <trkpt lat="49.21248" lon="2.02449">
        <ele>85.199996948242</ele>
        <time>2014-03-30T08:28:51Z</time>
      </trkpt>
      <trkpt lat="49.21227" lon="2.02657">
        <ele>88.400001525879</ele>
        <time>2014-03-30T08:29:17Z</time>
      </trkpt>
      <trkpt lat="49.21223" lon="2.02705">
        <ele>89.400001525879</ele>
        <time>2014-03-30T08:29:23Z</time>
      </trkpt>
      <trkpt lat="49.21197" lon="2.02716">
        <ele>91.199996948242</ele>
        <time>2014-03-30T08:29:31Z</time>
      </trkpt>
      <trkpt lat="49.21148" lon="2.02718">
        <ele>90.800003051758</ele>
        <time>2014-03-30T08:29:43Z</time>
      </trkpt>
      <trkpt lat="49.21118" lon="2.02725">
        <ele>89.400001525879</ele>
        <time>2014-03-30T08:29:50Z</time>
      </trkpt>
      <trkpt lat="49.20999" lon="2.02693">
        <ele>89.599998474121</ele>
        <time>2014-03-30T08:30:17Z</time>
      </trkpt>
      <trkpt lat="49.20937" lon="2.02665">
        <ele>91.599998474121</ele>
        <time>2014-03-30T08:30:35Z</time>
      </trkpt>
      <trkpt lat="49.20835" lon="2.02658">
        <ele>94.400001525879</ele>
        <time>2014-03-30T08:31:00Z</time>
      </trkpt>
      <trkpt lat="49.20803" lon="2.02663">
        <ele>95.400001525879</ele>
        <time>2014-03-30T08:31:08Z</time>
      </trkpt>
      <trkpt lat="49.20761" lon="2.02657">
        <ele>96</ele>
        <time>2014-03-30T08:31:18Z</time>
      </trkpt>
      <trkpt lat="49.20743" lon="2.0265">
        <ele>96.199996948242</ele>
        <time>2014-03-30T08:31:22Z</time>
      </trkpt>
      <trkpt lat="49.2067" lon="2.02611">
        <ele>98.199996948242</ele>
        <time>2014-03-30T08:31:40Z</time>
      </trkpt>
      <trkpt lat="49.20634" lon="2.02598">
        <ele>99.199996948242</ele>
        <time>2014-03-30T08:31:49Z</time>
      </trkpt>
      <trkpt lat="49.20548" lon="2.02569">
        <ele>102.59999847412</ele>
        <time>2014-03-30T08:32:13Z</time>
      </trkpt>
      <trkpt lat="49.20472" lon="2.02559">
        <ele>104.80000305176</ele>
        <time>2014-03-30T08:32:33Z</time>
      </trkpt>
      <trkpt lat="49.20388" lon="2.02597">
        <ele>107.40000152588</ele>
        <time>2014-03-30T08:32:57Z</time>
      </trkpt>
      <trkpt lat="49.20362" lon="2.02599">
        <ele>108.19999694824</ele>
        <time>2014-03-30T08:33:05Z</time>
      </trkpt>
      <trkpt lat="49.20339" lon="2.02593">
        <ele>108.80000305176</ele>
        <time>2014-03-30T08:33:13Z</time>
      </trkpt>
      <trkpt lat="49.20329" lon="2.02574">
        <ele>109.59999847412</ele>
        <time>2014-03-30T08:33:18Z</time>
      </trkpt>
      <trkpt lat="49.20291" lon="2.02498">
        <ele>112.19999694824</ele>
        <time>2014-03-30T08:33:37Z</time>
      </trkpt>
      <trkpt lat="49.20268" lon="2.02445">
        <ele>115.40000152588</ele>
        <time>2014-03-30T08:33:52Z</time>
      </trkpt>
      <trkpt lat="49.20246" lon="2.02398">
        <ele>118.80000305176</ele>
        <time>2014-03-30T08:34:06Z</time>
      </trkpt>
      <trkpt lat="49.20222" lon="2.02339">
        <ele>122.19999694824</ele>
        <time>2014-03-30T08:34:21Z</time>
      </trkpt>
      <trkpt lat="49.20211" lon="2.02277">
        <ele>124.59999847412</ele>
        <time>2014-03-30T08:34:37Z</time>
      </trkpt>
      <trkpt lat="49.20206" lon="2.02228">
        <ele>127</ele>
        <time>2014-03-30T08:34:49Z</time>
      </trkpt>
      <trkpt lat="49.20198" lon="2.02052">
        <ele>125.80000305176</ele>
        <time>2014-03-30T08:35:16Z</time>
      </trkpt>
      <trkpt lat="49.20199" lon="2.01849">
        <ele>123.59999847412</ele>
        <time>2014-03-30T08:35:42Z</time>
      </trkpt>
      <trkpt lat="49.20199" lon="2.018">
        <ele>122.19999694824</ele>
        <time>2014-03-30T08:35:51Z</time>
      </trkpt>
      <trkpt lat="49.20195" lon="2.0179">
        <ele>122.19999694824</ele>
        <time>2014-03-30T08:36:11Z</time>
      </trkpt>
      <trkpt lat="49.2019" lon="2.01799">
        <ele>119.80000305176</ele>
        <time>2014-03-30T08:43:34Z</time>
      </trkpt>
      <trkpt lat="49.20185" lon="2.01805">
        <ele>120.40000152588</ele>
        <time>2014-03-30T08:43:37Z</time>
      </trkpt>
      <trkpt lat="49.20179" lon="2.01812">
        <ele>120.80000305176</ele>
        <time>2014-03-30T08:43:40Z</time>
      </trkpt>
      <trkpt lat="49.20161" lon="2.01829">
        <ele>121.80000305176</ele>
        <time>2014-03-30T08:43:47Z</time>
      </trkpt>
      <trkpt lat="49.20128" lon="2.0186">
        <ele>124</ele>
        <time>2014-03-30T08:44:00Z</time>
      </trkpt>
      <trkpt lat="49.20089" lon="2.0189">
        <ele>127.19999694824</ele>
        <time>2014-03-30T08:44:14Z</time>
      </trkpt>
      <trkpt lat="49.20064" lon="2.01911">
        <ele>130</ele>
        <time>2014-03-30T08:44:24Z</time>
      </trkpt>
      <trkpt lat="49.20019" lon="2.01937">
        <ele>133.19999694824</ele>
        <time>2014-03-30T08:44:36Z</time>
      </trkpt>
      <trkpt lat="49.19988" lon="2.01955">
        <ele>135.39999389648</ele>
        <time>2014-03-30T08:44:45Z</time>
      </trkpt>
      <trkpt lat="49.19959" lon="2.01985">
        <ele>138.60000610352</ele>
        <time>2014-03-30T08:44:55Z</time>
      </trkpt>
      <trkpt lat="49.19932" lon="2.0202">
        <ele>141.60000610352</ele>
        <time>2014-03-30T08:45:05Z</time>
      </trkpt>
      <trkpt lat="49.19908" lon="2.02046">
        <ele>143.60000610352</ele>
        <time>2014-03-30T08:45:13Z</time>
      </trkpt>
      <trkpt lat="49.19852" lon="2.02093">
        <ele>143.80000305176</ele>
        <time>2014-03-30T08:45:29Z</time>
      </trkpt>
      <trkpt lat="49.19828" lon="2.02096">
        <ele>143.60000610352</ele>
        <time>2014-03-30T08:45:34Z</time>
      </trkpt>
      <trkpt lat="49.19788" lon="2.02096">
        <ele>144.39999389648</ele>
        <time>2014-03-30T08:45:44Z</time>
      </trkpt>
      <trkpt lat="49.19757" lon="2.02133">
        <ele>145.39999389648</ele>
        <time>2014-03-30T08:45:52Z</time>
      </trkpt>
      <trkpt lat="49.19725" lon="2.02152">
        <ele>146.19999694824</ele>
        <time>2014-03-30T08:46:00Z</time>
      </trkpt>
      <trkpt lat="49.19701" lon="2.02149">
        <ele>147.60000610352</ele>
        <time>2014-03-30T08:46:05Z</time>
      </trkpt>
      <trkpt lat="49.19678" lon="2.02104">
        <ele>150.19999694824</ele>
        <time>2014-03-30T08:46:14Z</time>
      </trkpt>
      <trkpt lat="49.19634" lon="2.02083">
        <ele>152.19999694824</ele>
        <time>2014-03-30T08:46:26Z</time>
      </trkpt>
      <trkpt lat="49.1963" lon="2.02084">
        <ele>152.39999389648</ele>
        <time>2014-03-30T08:46:27Z</time>
      </trkpt>
      <trkpt lat="49.19595" lon="2.02086">
        <ele>153.19999694824</ele>
        <time>2014-03-30T08:46:35Z</time>
      </trkpt>
      <trkpt lat="49.19569" lon="2.021">
        <ele>154.19999694824</ele>
        <time>2014-03-30T08:46:41Z</time>
      </trkpt>
      <trkpt lat="49.19537" lon="2.02123">
        <ele>154.19999694824</ele>
        <time>2014-03-30T08:46:48Z</time>
      </trkpt>
      <trkpt lat="49.1948" lon="2.02121">
        <ele>154</ele>
        <time>2014-03-30T08:46:59Z</time>
      </trkpt>
      <trkpt lat="49.19431" lon="2.02097">
        <ele>156.19999694824</ele>
        <time>2014-03-30T08:47:15Z</time>
      </trkpt>
      <trkpt lat="49.19408" lon="2.02093">
        <ele>158.60000610352</ele>
        <time>2014-03-30T08:47:22Z</time>
      </trkpt>
      <trkpt lat="49.19379" lon="2.02088">
        <ele>161.80000305176</ele>
        <time>2014-03-30T08:47:31Z</time>
      </trkpt>
      <trkpt lat="49.19345" lon="2.02078">
        <ele>165.19999694824</ele>
        <time>2014-03-30T08:47:44Z</time>
      </trkpt>
      <trkpt lat="49.19327" lon="2.02073">
        <ele>166.60000610352</ele>
        <time>2014-03-30T08:47:51Z</time>
      </trkpt>
      <trkpt lat="49.1929" lon="2.02063">
        <ele>170.39999389648</ele>
        <time>2014-03-30T08:48:03Z</time>
      </trkpt>
      <trkpt lat="49.1927" lon="2.02055">
        <ele>172.60000610352</ele>
        <time>2014-03-30T08:48:11Z</time>
      </trkpt>
      <trkpt lat="49.19236" lon="2.02044">
        <ele>175.80000305176</ele>
        <time>2014-03-30T08:48:26Z</time>
      </trkpt>
      <trkpt lat="49.19213" lon="2.02029">
        <ele>179.19999694824</ele>
        <time>2014-03-30T08:48:38Z</time>
      </trkpt>
      <trkpt lat="49.19191" lon="2.02022">
        <ele>182.80000305176</ele>
        <time>2014-03-30T08:48:48Z</time>
      </trkpt>
      <trkpt lat="49.19178" lon="2.02024">
        <ele>184.19999694824</ele>
        <time>2014-03-30T08:48:53Z</time>
      </trkpt>
      <trkpt lat="49.19166" lon="2.02023">
        <ele>186</ele>
        <time>2014-03-30T08:49:01Z</time>
      </trkpt>
      <trkpt lat="49.19165" lon="2.02024">
        <ele>186.19999694824</ele>
        <time>2014-03-30T08:49:02Z</time>
      </trkpt>
      <trkpt lat="49.19149" lon="2.02025">
        <ele>189.19999694824</ele>
        <time>2014-03-30T08:49:13Z</time>
      </trkpt>
      <trkpt lat="49.19147" lon="2.02025">
        <ele>189.39999389648</ele>
        <time>2014-03-30T08:49:14Z</time>
      </trkpt>
      <trkpt lat="49.19142" lon="2.02028">
        <ele>190.80000305176</ele>
        <time>2014-03-30T08:49:19Z</time>
      </trkpt>
      <trkpt lat="49.19135" lon="2.02033">
        <ele>192.19999694824</ele>
        <time>2014-03-30T08:49:24Z</time>
      </trkpt>
      <trkpt lat="49.19124" lon="2.02039">
        <ele>195.60000610352</ele>
        <time>2014-03-30T08:49:32Z</time>
      </trkpt>
      <trkpt lat="49.19119" lon="2.02043">
        <ele>197.60000610352</ele>
        <time>2014-03-30T08:49:37Z</time>
      </trkpt>
      <trkpt lat="49.1911" lon="2.0205">
        <ele>198.80000305176</ele>
        <time>2014-03-30T08:49:41Z</time>
      </trkpt>
      <trkpt lat="49.19108" lon="2.02051">
        <ele>199</ele>
        <time>2014-03-30T08:49:42Z</time>
      </trkpt>
      <trkpt lat="49.19091" lon="2.02058">
        <ele>201.19999694824</ele>
        <time>2014-03-30T08:49:52Z</time>
      </trkpt>
      <trkpt lat="49.19089" lon="2.02059">
        <ele>201.39999389648</ele>
        <time>2014-03-30T08:49:53Z</time>
      </trkpt>
      <trkpt lat="49.19055" lon="2.02061">
        <ele>202.80000305176</ele>
        <time>2014-03-30T08:51:14Z</time>
      </trkpt>
      <trkpt lat="49.19011" lon="2.02081">
        <ele>201.39999389648</ele>
        <time>2014-03-30T08:51:49Z</time>
      </trkpt>
      <trkpt lat="49.18996" lon="2.02095">
        <ele>201</ele>
        <time>2014-03-30T08:51:54Z</time>
      </trkpt>
      <trkpt lat="49.18954" lon="2.02119">
        <ele>200.19999694824</ele>
        <time>2014-03-30T08:52:06Z</time>
      </trkpt>
      <trkpt lat="49.18931" lon="2.0213">
        <ele>200</ele>
        <time>2014-03-30T08:52:12Z</time>
      </trkpt>
      <trkpt lat="49.18927" lon="2.02132">
        <ele>199.80000305176</ele>
        <time>2014-03-30T08:52:13Z</time>
      </trkpt>
      <trkpt lat="49.18904" lon="2.02149">
        <ele>199.39999389648</ele>
        <time>2014-03-30T08:52:18Z</time>
      </trkpt>
      <trkpt lat="49.18852" lon="2.02198">
        <ele>198.80000305176</ele>
        <time>2014-03-30T08:52:31Z</time>
      </trkpt>
      <trkpt lat="49.18811" lon="2.02223">
        <ele>199.19999694824</ele>
        <time>2014-03-30T08:52:41Z</time>
      </trkpt>
      <trkpt lat="49.18788" lon="2.02232">
        <ele>199</ele>
        <time>2014-03-30T08:52:46Z</time>
      </trkpt>
      <trkpt lat="49.18762" lon="2.02236">
        <ele>198.80000305176</ele>
        <time>2014-03-30T08:52:52Z</time>
      </trkpt>
      <trkpt lat="49.18725" lon="2.02233">
        <ele>199.39999389648</ele>
        <time>2014-03-30T08:53:00Z</time>
      </trkpt>
      <trkpt lat="49.18673" lon="2.0222">
        <ele>200</ele>
        <time>2014-03-30T08:53:11Z</time>
      </trkpt>
      <trkpt lat="49.1865" lon="2.0222">
        <ele>200.39999389648</ele>
        <time>2014-03-30T08:53:16Z</time>
      </trkpt>
      <trkpt lat="49.18598" lon="2.0221">
        <ele>201.19999694824</ele>
        <time>2014-03-30T08:53:28Z</time>
      </trkpt>
      <trkpt lat="49.18551" lon="2.0219">
        <ele>201.39999389648</ele>
        <time>2014-03-30T08:53:40Z</time>
      </trkpt>
      <trkpt lat="49.18527" lon="2.02177">
        <ele>201.19999694824</ele>
        <time>2014-03-30T08:53:46Z</time>
      </trkpt>
      <trkpt lat="49.18468" lon="2.0217">
        <ele>201</ele>
        <time>2014-03-30T08:53:58Z</time>
      </trkpt>
      <trkpt lat="49.18396" lon="2.02112">
        <ele>202</ele>
        <time>2014-03-30T08:54:17Z</time>
      </trkpt>
      <trkpt lat="49.1838" lon="2.0208">
        <ele>201.80000305176</ele>
        <time>2014-03-30T08:54:23Z</time>
      </trkpt>
      <trkpt lat="49.18309" lon="2.01972">
        <ele>201.39999389648</ele>
        <time>2014-03-30T08:54:45Z</time>
      </trkpt>
      <trkpt lat="49.1829" lon="2.01932">
        <ele>201</ele>
        <time>2014-03-30T08:54:52Z</time>
      </trkpt>
      <trkpt lat="49.18275" lon="2.01901">
        <ele>200.80000305176</ele>
        <time>2014-03-30T08:54:57Z</time>
      </trkpt>
      <trkpt lat="49.18245" lon="2.01858">
        <ele>200.60000610352</ele>
        <time>2014-03-30T08:55:05Z</time>
      </trkpt>
      <trkpt lat="49.18206" lon="2.01797">
        <ele>200.60000610352</ele>
        <time>2014-03-30T08:55:16Z</time>
      </trkpt>
      <trkpt lat="49.18192" lon="2.01775">
        <ele>200.60000610352</ele>
        <time>2014-03-30T08:55:20Z</time>
      </trkpt>
      <trkpt lat="49.18168" lon="2.01737">
        <ele>200.19999694824</ele>
        <time>2014-03-30T08:55:27Z</time>
      </trkpt>
      <trkpt lat="49.18145" lon="2.01699">
        <ele>200.60000610352</ele>
        <time>2014-03-30T08:55:34Z</time>
      </trkpt>
      <trkpt lat="49.1813" lon="2.01677">
        <ele>200.60000610352</ele>
        <time>2014-03-30T08:55:38Z</time>
      </trkpt>
      <trkpt lat="49.18093" lon="2.01637">
        <ele>201</ele>
        <time>2014-03-30T08:55:47Z</time>
      </trkpt>
      <trkpt lat="49.17987" lon="2.01552">
        <ele>201</ele>
        <time>2014-03-30T08:56:09Z</time>
      </trkpt>
      <trkpt lat="49.17932" lon="2.01487">
        <ele>201.60000610352</ele>
        <time>2014-03-30T08:56:25Z</time>
      </trkpt>
      <trkpt lat="49.179" lon="2.01462">
        <ele>201.19999694824</ele>
        <time>2014-03-30T08:56:36Z</time>
      </trkpt>
      <trkpt lat="49.17886" lon="2.01486">
        <ele>200.80000305176</ele>
        <time>2014-03-30T08:56:41Z</time>
      </trkpt>
      <trkpt lat="49.17857" lon="2.01531">
        <ele>199.39999389648</ele>
        <time>2014-03-30T08:56:57Z</time>
      </trkpt>
      <trkpt lat="49.17856" lon="2.01532">
        <ele>199.39999389648</ele>
        <time>2014-03-30T08:57:19Z</time>
      </trkpt>
      <trkpt lat="49.1785" lon="2.01571">
        <ele>197.60000610352</ele>
        <time>2014-03-30T08:57:28Z</time>
      </trkpt>
      <trkpt lat="49.1785" lon="2.01575">
        <ele>197.39999389648</ele>
        <time>2014-03-30T08:57:29Z</time>
      </trkpt>
      <trkpt lat="49.17848" lon="2.0159">
        <ele>195.80000305176</ele>
        <time>2014-03-30T08:57:44Z</time>
      </trkpt>
      <trkpt lat="49.17843" lon="2.01611">
        <ele>195</ele>
        <time>2014-03-30T08:57:49Z</time>
      </trkpt>
      <trkpt lat="49.17836" lon="2.01659">
        <ele>192</ele>
        <time>2014-03-30T08:57:54Z</time>
      </trkpt>
      <trkpt lat="49.17822" lon="2.01717">
        <ele>188.39999389648</ele>
        <time>2014-03-30T08:57:59Z</time>
      </trkpt>
      <trkpt lat="49.1781" lon="2.01764">
        <ele>185.39999389648</ele>
        <time>2014-03-30T08:58:03Z</time>
      </trkpt>
      <trkpt lat="49.17805" lon="2.01814">
        <ele>183.60000610352</ele>
        <time>2014-03-30T08:58:07Z</time>
      </trkpt>
      <trkpt lat="49.17805" lon="2.0184">
        <ele>182.60000610352</ele>
        <time>2014-03-30T08:58:09Z</time>
      </trkpt>
      <trkpt lat="49.17802" lon="2.01884">
        <ele>181.60000610352</ele>
        <time>2014-03-30T08:58:14Z</time>
      </trkpt>
      <trkpt lat="49.17797" lon="2.01935">
        <ele>180.39999389648</ele>
        <time>2014-03-30T08:58:27Z</time>
      </trkpt>
      <trkpt lat="49.17803" lon="2.01978">
        <ele>178</ele>
        <time>2014-03-30T08:58:38Z</time>
      </trkpt>
      <trkpt lat="49.17833" lon="2.02008">
        <ele>174.19999694824</ele>
        <time>2014-03-30T08:58:45Z</time>
      </trkpt>
      <trkpt lat="49.17856" lon="2.02044">
        <ele>172.39999389648</ele>
        <time>2014-03-30T08:58:50Z</time>
      </trkpt>
      <trkpt lat="49.17858" lon="2.02102">
        <ele>172.39999389648</ele>
        <time>2014-03-30T08:58:59Z</time>
      </trkpt>
      <trkpt lat="49.17864" lon="2.02142">
        <ele>173.60000610352</ele>
        <time>2014-03-30T08:59:06Z</time>
      </trkpt>
      <trkpt lat="49.17881" lon="2.022">
        <ele>174</ele>
        <time>2014-03-30T08:59:20Z</time>
      </trkpt>
      <trkpt lat="49.17867" lon="2.0226">
        <ele>172.19999694824</ele>
        <time>2014-03-30T08:59:31Z</time>
      </trkpt>
      <trkpt lat="49.1784" lon="2.02336">
        <ele>169.80000305176</ele>
        <time>2014-03-30T08:59:44Z</time>
      </trkpt>
      <trkpt lat="49.17839" lon="2.02344">
        <ele>169.60000610352</ele>
        <time>2014-03-30T08:59:45Z</time>
      </trkpt>
      <trkpt lat="49.17837" lon="2.02362">
        <ele>169.39999389648</ele>
        <time>2014-03-30T08:59:47Z</time>
      </trkpt>
      <trkpt lat="49.17849" lon="2.02421">
        <ele>167.80000305176</ele>
        <time>2014-03-30T08:59:52Z</time>
      </trkpt>
      <trkpt lat="49.17851" lon="2.02432">
        <ele>167.19999694824</ele>
        <time>2014-03-30T08:59:53Z</time>
      </trkpt>
      <trkpt lat="49.17853" lon="2.02455">
        <ele>165.60000610352</ele>
        <time>2014-03-30T08:59:55Z</time>
      </trkpt>
      <trkpt lat="49.1785" lon="2.02493">
        <ele>162.60000610352</ele>
        <time>2014-03-30T08:59:59Z</time>
      </trkpt>
      <trkpt lat="49.17833" lon="2.02523">
        <ele>159.60000610352</ele>
        <time>2014-03-30T09:00:03Z</time>
      </trkpt>
      <trkpt lat="49.17798" lon="2.02562">
        <ele>157</ele>
        <time>2014-03-30T09:00:09Z</time>
      </trkpt>
      <trkpt lat="49.17791" lon="2.02591">
        <ele>156</ele>
        <time>2014-03-30T09:00:12Z</time>
      </trkpt>
      <trkpt lat="49.1778" lon="2.02667">
        <ele>154.80000305176</ele>
        <time>2014-03-30T09:00:21Z</time>
      </trkpt>
      <trkpt lat="49.17799" lon="2.02689">
        <ele>154.60000610352</ele>
        <time>2014-03-30T09:00:28Z</time>
      </trkpt>
      <trkpt lat="49.17813" lon="2.02686">
        <ele>155.39999389648</ele>
        <time>2014-03-30T09:00:31Z</time>
      </trkpt>
      <trkpt lat="49.17827" lon="2.02682">
        <ele>156.19999694824</ele>
        <time>2014-03-30T09:00:34Z</time>
      </trkpt>
      <trkpt lat="49.17868" lon="2.02668">
        <ele>156.80000305176</ele>
        <time>2014-03-30T09:00:42Z</time>
      </trkpt>
      <trkpt lat="49.17896" lon="2.02674">
        <ele>157.60000610352</ele>
        <time>2014-03-30T09:00:47Z</time>
      </trkpt>
      <trkpt lat="49.17941" lon="2.02693">
        <ele>157.80000305176</ele>
        <time>2014-03-30T09:00:55Z</time>
      </trkpt>
      <trkpt lat="49.17989" lon="2.02755">
        <ele>157.39999389648</ele>
        <time>2014-03-30T09:01:06Z</time>
      </trkpt>
      <trkpt lat="49.17999" lon="2.02777">
        <ele>158</ele>
        <time>2014-03-30T09:01:09Z</time>
      </trkpt>
      <trkpt lat="49.18024" lon="2.02838">
        <ele>162.19999694824</ele>
        <time>2014-03-30T09:01:19Z</time>
      </trkpt>
      <trkpt lat="49.18049" lon="2.02897">
        <ele>164.39999389648</ele>
        <time>2014-03-30T09:01:30Z</time>
      </trkpt>
      <trkpt lat="49.18073" lon="2.02949">
        <ele>163.60000610352</ele>
        <time>2014-03-30T09:01:40Z</time>
      </trkpt>
      <trkpt lat="49.18063" lon="2.03002">
        <ele>160.39999389648</ele>
        <time>2014-03-30T09:01:47Z</time>
      </trkpt>
      <trkpt lat="49.18053" lon="2.03037">
        <ele>158.39999389648</ele>
        <time>2014-03-30T09:01:50Z</time>
      </trkpt>
      <trkpt lat="49.18042" lon="2.03088">
        <ele>154.39999389648</ele>
        <time>2014-03-30T09:01:54Z</time>
      </trkpt>
      <trkpt lat="49.1803" lon="2.03147">
        <ele>150.60000610352</ele>
        <time>2014-03-30T09:01:58Z</time>
      </trkpt>
      <trkpt lat="49.18024" lon="2.03199">
        <ele>145.80000305176</ele>
        <time>2014-03-30T09:02:01Z</time>
      </trkpt>
      <trkpt lat="49.18026" lon="2.03276">
        <ele>142.80000305176</ele>
        <time>2014-03-30T09:02:05Z</time>
      </trkpt>
      <trkpt lat="49.18036" lon="2.03347">
        <ele>140.19999694824</ele>
        <time>2014-03-30T09:02:09Z</time>
      </trkpt>
      <trkpt lat="49.18054" lon="2.03462">
        <ele>138.39999389648</ele>
        <time>2014-03-30T09:02:16Z</time>
      </trkpt>
      <trkpt lat="49.18056" lon="2.0353">
        <ele>138.80000305176</ele>
        <time>2014-03-30T09:02:21Z</time>
      </trkpt>
      <trkpt lat="49.18056" lon="2.03621">
        <ele>138.39999389648</ele>
        <time>2014-03-30T09:02:28Z</time>
      </trkpt>
      <trkpt lat="49.1805" lon="2.03725">
        <ele>135.19999694824</ele>
        <time>2014-03-30T09:02:35Z</time>
      </trkpt>
      <trkpt lat="49.18047" lon="2.03767">
        <ele>134</ele>
        <time>2014-03-30T09:02:38Z</time>
      </trkpt>
      <trkpt lat="49.18047" lon="2.03793">
        <ele>134</ele>
        <time>2014-03-30T09:02:40Z</time>
      </trkpt>
      <trkpt lat="49.18056" lon="2.03825">
        <ele>133.39999389648</ele>
        <time>2014-03-30T09:02:43Z</time>
      </trkpt>
      <trkpt lat="49.18054" lon="2.03848">
        <ele>132.80000305176</ele>
        <time>2014-03-30T09:02:46Z</time>
      </trkpt>
      <trkpt lat="49.18046" lon="2.03864">
        <ele>132.19999694824</ele>
        <time>2014-03-30T09:02:49Z</time>
      </trkpt>
      <trkpt lat="49.18064" lon="2.0391">
        <ele>130.80000305176</ele>
        <time>2014-03-30T09:02:55Z</time>
      </trkpt>
      <trkpt lat="49.18068" lon="2.03919">
        <ele>130.60000610352</ele>
        <time>2014-03-30T09:02:56Z</time>
      </trkpt>
      <trkpt lat="49.18098" lon="2.03983">
        <ele>127.40000152588</ele>
        <time>2014-03-30T09:03:03Z</time>
      </trkpt>
      <trkpt lat="49.18103" lon="2.03993">
        <ele>126.80000305176</ele>
        <time>2014-03-30T09:03:04Z</time>
      </trkpt>
      <trkpt lat="49.18119" lon="2.04081">
        <ele>123.40000152588</ele>
        <time>2014-03-30T09:03:11Z</time>
      </trkpt>
      <trkpt lat="49.18116" lon="2.04097">
        <ele>122.80000305176</ele>
        <time>2014-03-30T09:03:12Z</time>
      </trkpt>
      <trkpt lat="49.18113" lon="2.04113">
        <ele>121.80000305176</ele>
        <time>2014-03-30T09:03:13Z</time>
      </trkpt>
      <trkpt lat="49.18097" lon="2.0416">
        <ele>120.40000152588</ele>
        <time>2014-03-30T09:03:16Z</time>
      </trkpt>
      <trkpt lat="49.18069" lon="2.04249">
        <ele>118.59999847412</ele>
        <time>2014-03-30T09:03:22Z</time>
      </trkpt>
      <trkpt lat="49.18052" lon="2.04323">
        <ele>118.40000152588</ele>
        <time>2014-03-30T09:03:27Z</time>
      </trkpt>
      <trkpt lat="49.18011" lon="2.04474">
        <ele>116.59999847412</ele>
        <time>2014-03-30T09:03:37Z</time>
      </trkpt>
      <trkpt lat="49.17996" lon="2.04516">
        <ele>116.80000305176</ele>
        <time>2014-03-30T09:03:40Z</time>
      </trkpt>
      <trkpt lat="49.17953" lon="2.04639">
        <ele>117.80000305176</ele>
        <time>2014-03-30T09:03:49Z</time>
      </trkpt>
      <trkpt lat="49.17944" lon="2.04735">
        <ele>117.19999694824</ele>
        <time>2014-03-30T09:03:57Z</time>
      </trkpt>
      <trkpt lat="49.17945" lon="2.04743">
        <ele>117.19999694824</ele>
        <time>2014-03-30T09:03:58Z</time>
      </trkpt>
      <trkpt lat="49.17954" lon="2.04794">
        <ele>117.80000305176</ele>
        <time>2014-03-30T09:04:06Z</time>
      </trkpt>
      <trkpt lat="49.17973" lon="2.04798">
        <ele>118.80000305176</ele>
        <time>2014-03-30T09:04:11Z</time>
      </trkpt>
      <trkpt lat="49.18112" lon="2.04766">
        <ele>121.40000152588</ele>
        <time>2014-03-30T09:04:42Z</time>
      </trkpt>
      <trkpt lat="49.18282" lon="2.04721">
        <ele>120.40000152588</ele>
        <time>2014-03-30T09:05:11Z</time>
      </trkpt>
      <trkpt lat="49.18341" lon="2.04705">
        <ele>120.19999694824</ele>
        <time>2014-03-30T09:05:21Z</time>
      </trkpt>
      <trkpt lat="49.18352" lon="2.04728">
        <ele>119.80000305176</ele>
        <time>2014-03-30T09:05:26Z</time>
      </trkpt>
      <trkpt lat="49.18366" lon="2.04784">
        <ele>119.40000152588</ele>
        <time>2014-03-30T09:05:33Z</time>
      </trkpt>
      <trkpt lat="49.18378" lon="2.04869">
        <ele>118.59999847412</ele>
        <time>2014-03-30T09:05:44Z</time>
      </trkpt>
      <trkpt lat="49.18385" lon="2.04884">
        <ele>119.19999694824</ele>
        <time>2014-03-30T09:05:48Z</time>
      </trkpt>
      <trkpt lat="49.18391" lon="2.04896">
        <ele>120.19999694824</ele>
        <time>2014-03-30T09:05:53Z</time>
      </trkpt>
      <trkpt lat="49.18411" lon="2.04973">
        <ele>122.19999694824</ele>
        <time>2014-03-30T09:06:10Z</time>
      </trkpt>
      <trkpt lat="49.18436" lon="2.05038">
        <ele>124.19999694824</ele>
        <time>2014-03-30T09:06:25Z</time>
      </trkpt>
      <trkpt lat="49.18426" lon="2.05083">
        <ele>124.19999694824</ele>
        <time>2014-03-30T09:06:37Z</time>
      </trkpt>
      <trkpt lat="49.18447" lon="2.05124">
        <ele>125.19999694824</ele>
        <time>2014-03-30T09:06:46Z</time>
      </trkpt>
      <trkpt lat="49.18469" lon="2.05144">
        <ele>126.19999694824</ele>
        <time>2014-03-30T09:06:58Z</time>
      </trkpt>
      <trkpt lat="49.1849" lon="2.05177">
        <ele>127.19999694824</ele>
        <time>2014-03-30T09:07:09Z</time>
      </trkpt>
      <trkpt lat="49.18516" lon="2.05229">
        <ele>128.60000610352</ele>
        <time>2014-03-30T09:07:40Z</time>
      </trkpt>
      <trkpt lat="49.18529" lon="2.05246">
        <ele>128.80000305176</ele>
        <time>2014-03-30T09:07:45Z</time>
      </trkpt>
      <trkpt lat="49.18531" lon="2.05256">
        <ele>128.60000610352</ele>
        <time>2014-03-30T09:07:48Z</time>
      </trkpt>
      <trkpt lat="49.18556" lon="2.05341">
        <ele>127.40000152588</ele>
        <time>2014-03-30T09:08:02Z</time>
      </trkpt>
      <trkpt lat="49.18589" lon="2.05466">
        <ele>127.40000152588</ele>
        <time>2014-03-30T09:08:22Z</time>
      </trkpt>
      <trkpt lat="49.186" lon="2.05514">
        <ele>127.59999847412</ele>
        <time>2014-03-30T09:08:29Z</time>
      </trkpt>
      <trkpt lat="49.18609" lon="2.05574">
        <ele>127.80000305176</ele>
        <time>2014-03-30T09:08:37Z</time>
      </trkpt>
      <trkpt lat="49.1864" lon="2.05784">
        <ele>126.40000152588</ele>
        <time>2014-03-30T09:08:59Z</time>
      </trkpt>
      <trkpt lat="49.18667" lon="2.05969">
        <ele>122.80000305176</ele>
        <time>2014-03-30T09:09:12Z</time>
      </trkpt>
      <trkpt lat="49.18683" lon="2.06052">
        <ele>120.80000305176</ele>
        <time>2014-03-30T09:09:18Z</time>
      </trkpt>
      <trkpt lat="49.18701" lon="2.06097">
        <ele>120.80000305176</ele>
        <time>2014-03-30T09:09:22Z</time>
      </trkpt>
      <trkpt lat="49.1872" lon="2.06133">
        <ele>121.19999694824</ele>
        <time>2014-03-30T09:09:26Z</time>
      </trkpt>
      <trkpt lat="49.18715" lon="2.06169">
        <ele>122</ele>
        <time>2014-03-30T09:09:31Z</time>
      </trkpt>
      <trkpt lat="49.18625" lon="2.06375">
        <ele>123.80000305176</ele>
        <time>2014-03-30T09:09:58Z</time>
      </trkpt>
      <trkpt lat="49.18563" lon="2.06513">
        <ele>122.59999847412</ele>
        <time>2014-03-30T09:10:16Z</time>
      </trkpt>
      <trkpt lat="49.18547" lon="2.06493">
        <ele>122.80000305176</ele>
        <time>2014-03-30T09:10:23Z</time>
      </trkpt>
      <trkpt lat="49.18468" lon="2.06416">
        <ele>122.40000152588</ele>
        <time>2014-03-30T09:10:46Z</time>
      </trkpt>
      <trkpt lat="49.18456" lon="2.06423">
        <ele>121.40000152588</ele>
        <time>2014-03-30T09:10:50Z</time>
      </trkpt>
      <trkpt lat="49.18448" lon="2.06442">
        <ele>121.59999847412</ele>
        <time>2014-03-30T09:11:10Z</time>
      </trkpt>
      <trkpt lat="49.18428" lon="2.06487">
        <ele>120.59999847412</ele>
        <time>2014-03-30T09:11:40Z</time>
      </trkpt>
      <trkpt lat="49.18368" lon="2.06626">
        <ele>119.19999694824</ele>
        <time>2014-03-30T09:11:59Z</time>
      </trkpt>
      <trkpt lat="49.18245" lon="2.06908">
        <ele>119.40000152588</ele>
        <time>2014-03-30T09:12:35Z</time>
      </trkpt>
      <trkpt lat="49.18234" lon="2.06928">
        <ele>119.40000152588</ele>
        <time>2014-03-30T09:12:38Z</time>
      </trkpt>
      <trkpt lat="49.18228" lon="2.06943">
        <ele>119.19999694824</ele>
        <time>2014-03-30T09:12:40Z</time>
      </trkpt>
      <trkpt lat="49.18117" lon="2.07192">
        <ele>117.80000305176</ele>
        <time>2014-03-30T09:13:16Z</time>
      </trkpt>
      <trkpt lat="49.18009" lon="2.07435">
        <ele>119.40000152588</ele>
        <time>2014-03-30T09:13:56Z</time>
      </trkpt>
      <trkpt lat="49.18019" lon="2.07451">
        <ele>120</ele>
        <time>2014-03-30T09:14:04Z</time>
      </trkpt>
      <trkpt lat="49.18027" lon="2.07451">
        <ele>120</ele>
        <time>2014-03-30T09:14:07Z</time>
      </trkpt>
      <trkpt lat="49.1813" lon="2.07462">
        <ele>116.80000305176</ele>
        <time>2014-03-30T09:14:32Z</time>
      </trkpt>
      <trkpt lat="49.18174" lon="2.07468">
        <ele>115.59999847412</ele>
        <time>2014-03-30T09:14:39Z</time>
      </trkpt>
      <trkpt lat="49.18255" lon="2.07494">
        <ele>112.40000152588</ele>
        <time>2014-03-30T09:14:51Z</time>
      </trkpt>
      <trkpt lat="49.1834" lon="2.07568">
        <ele>108.80000305176</ele>
        <time>2014-03-30T09:15:04Z</time>
      </trkpt>
      <trkpt lat="49.18377" lon="2.07604">
        <ele>107.80000305176</ele>
        <time>2014-03-30T09:15:10Z</time>
      </trkpt>
      <trkpt lat="49.18425" lon="2.07636">
        <ele>105.80000305176</ele>
        <time>2014-03-30T09:15:17Z</time>
      </trkpt>
      <trkpt lat="49.18447" lon="2.07647">
        <ele>105.40000152588</ele>
        <time>2014-03-30T09:15:20Z</time>
      </trkpt>
      <trkpt lat="49.18485" lon="2.07658">
        <ele>104</ele>
        <time>2014-03-30T09:15:25Z</time>
      </trkpt>
      <trkpt lat="49.18512" lon="2.0765">
        <ele>104</ele>
        <time>2014-03-30T09:15:48Z</time>
      </trkpt>
      <trkpt lat="49.18515" lon="2.07717">
        <ele>102.80000305176</ele>
        <time>2014-03-30T09:15:56Z</time>
      </trkpt>
      <trkpt lat="49.18511" lon="2.07792">
        <ele>102.59999847412</ele>
        <time>2014-03-30T09:16:06Z</time>
      </trkpt>
      <trkpt lat="49.18504" lon="2.07853">
        <ele>102.19999694824</ele>
        <time>2014-03-30T09:16:14Z</time>
      </trkpt>
      <trkpt lat="49.18478" lon="2.07962">
        <ele>101.19999694824</ele>
        <time>2014-03-30T09:16:27Z</time>
      </trkpt>
      <trkpt lat="49.18473" lon="2.07979">
        <ele>101</ele>
        <time>2014-03-30T09:16:29Z</time>
      </trkpt>
      <trkpt lat="49.18429" lon="2.08131">
        <ele>101.59999847412</ele>
        <time>2014-03-30T09:16:47Z</time>
      </trkpt>
      <trkpt lat="49.18426" lon="2.08159">
        <ele>103.59999847412</ele>
        <time>2014-03-30T09:16:51Z</time>
      </trkpt>
      <trkpt lat="49.18425" lon="2.08166">
        <ele>103.80000305176</ele>
        <time>2014-03-30T09:16:52Z</time>
      </trkpt>
      <trkpt lat="49.18413" lon="2.08209">
        <ele>105.59999847412</ele>
        <time>2014-03-30T09:16:59Z</time>
      </trkpt>
      <trkpt lat="49.18376" lon="2.08299">
        <ele>109</ele>
        <time>2014-03-30T09:17:15Z</time>
      </trkpt>
      <trkpt lat="49.18351" lon="2.08352">
        <ele>111.19999694824</ele>
        <time>2014-03-30T09:17:25Z</time>
      </trkpt>
      <trkpt lat="49.18312" lon="2.08429">
        <ele>111.80000305176</ele>
        <time>2014-03-30T09:17:39Z</time>
      </trkpt>
      <trkpt lat="49.18294" lon="2.08462">
        <ele>111.59999847412</ele>
        <time>2014-03-30T09:17:45Z</time>
      </trkpt>
      <trkpt lat="49.18202" lon="2.08618">
        <ele>108.59999847412</ele>
        <time>2014-03-30T09:18:09Z</time>
      </trkpt>
      <trkpt lat="49.18162" lon="2.08676">
        <ele>107</ele>
        <time>2014-03-30T09:18:18Z</time>
      </trkpt>
      <trkpt lat="49.18146" lon="2.08702">
        <ele>106.59999847412</ele>
        <time>2014-03-30T09:18:22Z</time>
      </trkpt>
      <trkpt lat="49.18038" lon="2.0885">
        <ele>103.80000305176</ele>
        <time>2014-03-30T09:18:45Z</time>
      </trkpt>
      <trkpt lat="49.18013" lon="2.08883">
        <ele>102.80000305176</ele>
        <time>2014-03-30T09:18:51Z</time>
      </trkpt>
      <trkpt lat="49.17914" lon="2.09025">
        <ele>98.599998474121</ele>
        <time>2014-03-30T09:19:10Z</time>
      </trkpt>
      <trkpt lat="49.17908" lon="2.09034">
        <ele>98.400001525879</ele>
        <time>2014-03-30T09:19:11Z</time>
      </trkpt>
      <trkpt lat="49.17843" lon="2.09125">
        <ele>96</ele>
        <time>2014-03-30T09:23:11Z</time>
      </trkpt>
      <trkpt lat="49.1782" lon="2.09156">
        <ele>94.599998474121</ele>
        <time>2014-03-30T09:23:16Z</time>
      </trkpt>
      <trkpt lat="49.17747" lon="2.09259">
        <ele>95.400001525879</ele>
        <time>2014-03-30T09:23:39Z</time>
      </trkpt>
      <trkpt lat="49.17746" lon="2.0928">
        <ele>95.199996948242</ele>
        <time>2014-03-30T09:23:42Z</time>
      </trkpt>
      <trkpt lat="49.17741" lon="2.09419">
        <ele>93.400001525879</ele>
        <time>2014-03-30T09:23:57Z</time>
      </trkpt>
      <trkpt lat="49.17735" lon="2.09537">
        <ele>92</ele>
        <time>2014-03-30T09:24:13Z</time>
      </trkpt>
      <trkpt lat="49.17727" lon="2.09542">
        <ele>92</ele>
        <time>2014-03-30T09:24:20Z</time>
      </trkpt>
      <trkpt lat="49.17726" lon="2.09542">
        <ele>92.199996948242</ele>
        <time>2014-03-30T09:24:22Z</time>
      </trkpt>
      <trkpt lat="49.17726" lon="2.09536">
        <ele>91.599998474121</ele>
        <time>2014-03-30T09:24:48Z</time>
      </trkpt>
      <trkpt lat="49.17726" lon="2.09534">
        <ele>91.199996948242</ele>
        <time>2014-03-30T09:29:40Z</time>
      </trkpt>
      <trkpt lat="49.17725" lon="2.09533">
        <ele>91.400001525879</ele>
        <time>2014-03-30T09:29:41Z</time>
      </trkpt>
      <trkpt lat="49.17722" lon="2.09534">
        <ele>92.400001525879</ele>
        <time>2014-03-30T09:29:48Z</time>
      </trkpt>
      <trkpt lat="49.17699" lon="2.09494">
        <ele>92</ele>
        <time>2014-03-30T09:30:02Z</time>
      </trkpt>
      <trkpt lat="49.1766" lon="2.09428">
        <ele>92.400001525879</ele>
        <time>2014-03-30T09:30:26Z</time>
      </trkpt>
      <trkpt lat="49.17648" lon="2.09418">
        <ele>92.800003051758</ele>
        <time>2014-03-30T09:30:31Z</time>
      </trkpt>
      <trkpt lat="49.17632" lon="2.0944">
        <ele>93.199996948242</ele>
        <time>2014-03-30T09:30:38Z</time>
      </trkpt>
      <trkpt lat="49.17618" lon="2.09463">
        <ele>92.800003051758</ele>
        <time>2014-03-30T09:30:43Z</time>
      </trkpt>
      <trkpt lat="49.17548" lon="2.09553">
        <ele>90.400001525879</ele>
        <time>2014-03-30T09:31:01Z</time>
      </trkpt>
      <trkpt lat="49.1754" lon="2.09565">
        <ele>90.199996948242</ele>
        <time>2014-03-30T09:31:03Z</time>
      </trkpt>
      <trkpt lat="49.17527" lon="2.09588">
        <ele>90</ele>
        <time>2014-03-30T09:31:07Z</time>
      </trkpt>
      <trkpt lat="49.17494" lon="2.09658">
        <ele>90.199996948242</ele>
        <time>2014-03-30T09:31:18Z</time>
      </trkpt>
      <trkpt lat="49.17481" lon="2.09676">
        <ele>90.199996948242</ele>
        <time>2014-03-30T09:31:21Z</time>
      </trkpt>
      <trkpt lat="49.17448" lon="2.09726">
        <ele>90.199996948242</ele>
        <time>2014-03-30T09:31:29Z</time>
      </trkpt>
      <trkpt lat="49.17384" lon="2.0978">
        <ele>88.199996948242</ele>
        <time>2014-03-30T09:31:41Z</time>
      </trkpt>
      <trkpt lat="49.17374" lon="2.09862">
        <ele>88.199996948242</ele>
        <time>2014-03-30T09:31:53Z</time>
      </trkpt>
      <trkpt lat="49.17356" lon="2.09916">
        <ele>88.400001525879</ele>
        <time>2014-03-30T09:32:01Z</time>
      </trkpt>
      <trkpt lat="49.17299" lon="2.10065">
        <ele>90.599998474121</ele>
        <time>2014-03-30T09:32:21Z</time>
      </trkpt>
      <trkpt lat="49.17288" lon="2.10092">
        <ele>91.199996948242</ele>
        <time>2014-03-30T09:32:25Z</time>
      </trkpt>
      <trkpt lat="49.17226" lon="2.10172">
        <ele>90.400001525879</ele>
        <time>2014-03-30T09:32:39Z</time>
      </trkpt>
      <trkpt lat="49.17192" lon="2.10223">
        <ele>89.400001525879</ele>
        <time>2014-03-30T09:32:46Z</time>
      </trkpt>
      <trkpt lat="49.17091" lon="2.10375">
        <ele>86.400001525879</ele>
        <time>2014-03-30T09:33:05Z</time>
      </trkpt>
      <trkpt lat="49.17074" lon="2.10398">
        <ele>85.800003051758</ele>
        <time>2014-03-30T09:33:08Z</time>
      </trkpt>
      <trkpt lat="49.17058" lon="2.10422">
        <ele>85.599998474121</ele>
        <time>2014-03-30T09:33:11Z</time>
      </trkpt>
      <trkpt lat="49.17016" lon="2.1049">
        <ele>82</ele>
        <time>2014-03-30T09:33:18Z</time>
      </trkpt>
      <trkpt lat="49.17003" lon="2.1051">
        <ele>81</ele>
        <time>2014-03-30T09:33:20Z</time>
      </trkpt>
      <trkpt lat="49.16998" lon="2.1052">
        <ele>80.800003051758</ele>
        <time>2014-03-30T09:33:21Z</time>
      </trkpt>
      <trkpt lat="49.16963" lon="2.10594">
        <ele>82</ele>
        <time>2014-03-30T09:33:33Z</time>
      </trkpt>
      <trkpt lat="49.16959" lon="2.10599">
        <ele>82</ele>
        <time>2014-03-30T09:33:34Z</time>
      </trkpt>
      <trkpt lat="49.16919" lon="2.10663">
        <ele>84.199996948242</ele>
        <time>2014-03-30T09:33:47Z</time>
      </trkpt>
      <trkpt lat="49.16901" lon="2.10686">
        <ele>85.199996948242</ele>
        <time>2014-03-30T09:33:52Z</time>
      </trkpt>
      <trkpt lat="49.16815" lon="2.10748">
        <ele>87.199996948242</ele>
        <time>2014-03-30T09:34:09Z</time>
      </trkpt>
      <trkpt lat="49.16743" lon="2.10758">
        <ele>85.400001525879</ele>
        <time>2014-03-30T09:34:22Z</time>
      </trkpt>
      <trkpt lat="49.16704" lon="2.10769">
        <ele>85.400001525879</ele>
        <time>2014-03-30T09:34:29Z</time>
      </trkpt>
      <trkpt lat="49.16669" lon="2.10785">
        <ele>85.800003051758</ele>
        <time>2014-03-30T09:34:36Z</time>
      </trkpt>
      <trkpt lat="49.16556" lon="2.10832">
        <ele>88.599998474121</ele>
        <time>2014-03-30T09:35:01Z</time>
      </trkpt>
      <trkpt lat="49.16477" lon="2.10849">
        <ele>90.599998474121</ele>
        <time>2014-03-30T09:35:17Z</time>
      </trkpt>
      <trkpt lat="49.16454" lon="2.1086">
        <ele>90</ele>
        <time>2014-03-30T09:35:22Z</time>
      </trkpt>
      <trkpt lat="49.16432" lon="2.10865">
        <ele>90</ele>
        <time>2014-03-30T09:35:26Z</time>
      </trkpt>
      <trkpt lat="49.16421" lon="2.10871">
        <ele>89.400001525879</ele>
        <time>2014-03-30T09:35:28Z</time>
      </trkpt>
      <trkpt lat="49.1639" lon="2.10882">
        <ele>88.800003051758</ele>
        <time>2014-03-30T09:35:33Z</time>
      </trkpt>
      <trkpt lat="49.16384" lon="2.10883">
        <ele>88.599998474121</ele>
        <time>2014-03-30T09:35:34Z</time>
      </trkpt>
      <trkpt lat="49.1626" lon="2.10904">
        <ele>85.199996948242</ele>
        <time>2014-03-30T09:35:52Z</time>
      </trkpt>
      <trkpt lat="49.16211" lon="2.10904">
        <ele>83.800003051758</ele>
        <time>2014-03-30T09:35:59Z</time>
      </trkpt>
      <trkpt lat="49.16142" lon="2.10927">
        <ele>81</ele>
        <time>2014-03-30T09:36:09Z</time>
      </trkpt>
      <trkpt lat="49.16116" lon="2.10931">
        <ele>79</ele>
        <time>2014-03-30T09:36:12Z</time>
      </trkpt>
      <trkpt lat="49.1606" lon="2.1093">
        <ele>75.599998474121</ele>
        <time>2014-03-30T09:36:18Z</time>
      </trkpt>
      <trkpt lat="49.15999" lon="2.10935">
        <ele>72.599998474121</ele>
        <time>2014-03-30T09:36:24Z</time>
      </trkpt>
      <trkpt lat="49.15989" lon="2.10935">
        <ele>72.199996948242</ele>
        <time>2014-03-30T09:36:25Z</time>
      </trkpt>
      <trkpt lat="49.15968" lon="2.10932">
        <ele>71</ele>
        <time>2014-03-30T09:36:27Z</time>
      </trkpt>
      <trkpt lat="49.15925" lon="2.10903">
        <ele>68.599998474121</ele>
        <time>2014-03-30T09:36:32Z</time>
      </trkpt>
      <trkpt lat="49.15896" lon="2.10828">
        <ele>64</ele>
        <time>2014-03-30T09:36:51Z</time>
      </trkpt>
      <trkpt lat="49.15897" lon="2.10798">
        <ele>63.400001525879</ele>
        <time>2014-03-30T09:36:54Z</time>
      </trkpt>
      <trkpt lat="49.15899" lon="2.10764">
        <ele>62</ele>
        <time>2014-03-30T09:36:57Z</time>
      </trkpt>
      <trkpt lat="49.15866" lon="2.10735">
        <ele>58</ele>
        <time>2014-03-30T09:37:02Z</time>
      </trkpt>
      <trkpt lat="49.15838" lon="2.10716">
        <ele>54.400001525879</ele>
        <time>2014-03-30T09:37:05Z</time>
      </trkpt>
      <trkpt lat="49.15788" lon="2.10681">
        <ele>50</ele>
        <time>2014-03-30T09:37:10Z</time>
      </trkpt>
      <trkpt lat="49.15715" lon="2.10631">
        <ele>47.400001525879</ele>
        <time>2014-03-30T09:37:18Z</time>
      </trkpt>
      <trkpt lat="49.15665" lon="2.10595">
        <ele>48.599998474121</ele>
        <time>2014-03-30T09:37:25Z</time>
      </trkpt>
      <trkpt lat="49.15637" lon="2.106">
        <ele>51.400001525879</ele>
        <time>2014-03-30T09:37:32Z</time>
      </trkpt>
      <trkpt lat="49.15626" lon="2.10639">
        <ele>51.599998474121</ele>
        <time>2014-03-30T09:37:37Z</time>
      </trkpt>
      <trkpt lat="49.15555" lon="2.10826">
        <ele>53.200000762939</ele>
        <time>2014-03-30T09:38:05Z</time>
      </trkpt>
      <trkpt lat="49.15553" lon="2.10831">
        <ele>53.400001525879</ele>
        <time>2014-03-30T09:38:06Z</time>
      </trkpt>
      <trkpt lat="49.15507" lon="2.10855">
        <ele>54.799999237061</ele>
        <time>2014-03-30T09:38:16Z</time>
      </trkpt>
      <trkpt lat="49.15481" lon="2.10858">
        <ele>55.599998474121</ele>
        <time>2014-03-30T09:38:21Z</time>
      </trkpt>
      <trkpt lat="49.15392" lon="2.10825">
        <ele>56.599998474121</ele>
        <time>2014-03-30T09:38:37Z</time>
      </trkpt>
      <trkpt lat="49.15368" lon="2.1082">
        <ele>56.599998474121</ele>
        <time>2014-03-30T09:38:41Z</time>
      </trkpt>
      <trkpt lat="49.15358" lon="2.10821">
        <ele>56.799999237061</ele>
        <time>2014-03-30T09:38:43Z</time>
      </trkpt>
      <trkpt lat="49.15303" lon="2.10825">
        <ele>56.200000762939</ele>
        <time>2014-03-30T09:38:53Z</time>
      </trkpt>
      <trkpt lat="49.15256" lon="2.10832">
        <ele>55.400001525879</ele>
        <time>2014-03-30T09:39:02Z</time>
      </trkpt>
      <trkpt lat="49.15222" lon="2.10842">
        <ele>55</ele>
        <time>2014-03-30T09:39:12Z</time>
      </trkpt>
      <trkpt lat="49.15221" lon="2.10821">
        <ele>56.400001525879</ele>
        <time>2014-03-30T09:39:23Z</time>
      </trkpt>
      <trkpt lat="49.15224" lon="2.10819">
        <ele>56.599998474121</ele>
        <time>2014-03-30T09:39:24Z</time>
      </trkpt>
      <trkpt lat="49.15233" lon="2.10815">
        <ele>57.799999237061</ele>
        <time>2014-03-30T09:39:41Z</time>
      </trkpt>
      <trkpt lat="49.15266" lon="2.10804">
        <ele>60.200000762939</ele>
        <time>2014-03-30T09:39:54Z</time>
      </trkpt>
      <trkpt lat="49.15293" lon="2.108">
        <ele>62.400001525879</ele>
        <time>2014-03-30T09:40:02Z</time>
      </trkpt>
      <trkpt lat="49.15328" lon="2.10788">
        <ele>65.400001525879</ele>
        <time>2014-03-30T09:40:14Z</time>
      </trkpt>
      <trkpt lat="49.15361" lon="2.10781">
        <ele>68.199996948242</ele>
        <time>2014-03-30T09:40:27Z</time>
      </trkpt>
      <trkpt lat="49.15377" lon="2.10778">
        <ele>69.599998474121</ele>
        <time>2014-03-30T09:40:33Z</time>
      </trkpt>
      <trkpt lat="49.15421" lon="2.10755">
        <ele>72.199996948242</ele>
        <time>2014-03-30T09:40:48Z</time>
      </trkpt>
      <trkpt lat="49.15426" lon="2.10752">
        <ele>72.800003051758</ele>
        <time>2014-03-30T09:40:50Z</time>
      </trkpt>
      <trkpt lat="49.15439" lon="2.10732">
        <ele>73.800003051758</ele>
        <time>2014-03-30T09:40:56Z</time>
      </trkpt>
      <trkpt lat="49.15431" lon="2.10678">
        <ele>76</ele>
        <time>2014-03-30T09:41:10Z</time>
      </trkpt>
      <trkpt lat="49.15399" lon="2.10662">
        <ele>77.400001525879</ele>
        <time>2014-03-30T09:41:21Z</time>
      </trkpt>
      <trkpt lat="49.15335" lon="2.10625">
        <ele>79</ele>
        <time>2014-03-30T09:41:39Z</time>
      </trkpt>
      <trkpt lat="49.1529" lon="2.10546">
        <ele>79.800003051758</ele>
        <time>2014-03-30T09:41:55Z</time>
      </trkpt>
      <trkpt lat="49.15284" lon="2.10455">
        <ele>79.800003051758</ele>
        <time>2014-03-30T09:42:07Z</time>
      </trkpt>
      <trkpt lat="49.15285" lon="2.1019">
        <ele>81.800003051758</ele>
        <time>2014-03-30T09:42:42Z</time>
      </trkpt>
      <trkpt lat="49.15306" lon="2.10055">
        <ele>82.599998474121</ele>
        <time>2014-03-30T09:42:59Z</time>
      </trkpt>
      <trkpt lat="49.15355" lon="2.09678">
        <ele>84.199996948242</ele>
        <time>2014-03-30T09:43:43Z</time>
      </trkpt>
      <trkpt lat="49.15371" lon="2.09464">
        <ele>84.800003051758</ele>
        <time>2014-03-30T09:44:12Z</time>
      </trkpt>
      <trkpt lat="49.15354" lon="2.09461">
        <ele>84</ele>
        <time>2014-03-30T09:44:16Z</time>
      </trkpt>
      <trkpt lat="49.15268" lon="2.09464">
        <ele>81.800003051758</ele>
        <time>2014-03-30T09:44:32Z</time>
      </trkpt>
      <trkpt lat="49.15179" lon="2.09472">
        <ele>79.800003051758</ele>
        <time>2014-03-30T09:44:48Z</time>
      </trkpt>
      <trkpt lat="49.15121" lon="2.09475">
        <ele>78</ele>
        <time>2014-03-30T09:44:59Z</time>
      </trkpt>
      <trkpt lat="49.15035" lon="2.09479">
        <ele>75.400001525879</ele>
        <time>2014-03-30T09:45:14Z</time>
      </trkpt>
      <trkpt lat="49.15008" lon="2.09445">
        <ele>73.800003051758</ele>
        <time>2014-03-30T09:45:22Z</time>
      </trkpt>
      <trkpt lat="49.15016" lon="2.09396">
        <ele>74.199996948242</ele>
        <time>2014-03-30T09:45:28Z</time>
      </trkpt>
      <trkpt lat="49.15042" lon="2.09235">
        <ele>76</ele>
        <time>2014-03-30T09:45:50Z</time>
      </trkpt>
      <trkpt lat="49.1505" lon="2.09188">
        <ele>76.800003051758</ele>
        <time>2014-03-30T09:45:59Z</time>
      </trkpt>
      <trkpt lat="49.15084" lon="2.09064">
        <ele>78.599998474121</ele>
        <time>2014-03-30T09:46:23Z</time>
      </trkpt>
      <trkpt lat="49.15113" lon="2.0898">
        <ele>79.599998474121</ele>
        <time>2014-03-30T09:46:38Z</time>
      </trkpt>
      <trkpt lat="49.15156" lon="2.08845">
        <ele>82</ele>
        <time>2014-03-30T09:47:03Z</time>
      </trkpt>
      <trkpt lat="49.15198" lon="2.08719">
        <ele>85</ele>
        <time>2014-03-30T09:47:29Z</time>
      </trkpt>
      <trkpt lat="49.15224" lon="2.08633">
        <ele>88.400001525879</ele>
        <time>2014-03-30T09:47:47Z</time>
      </trkpt>
      <trkpt lat="49.15254" lon="2.08534">
        <ele>91.599998474121</ele>
        <time>2014-03-30T09:48:07Z</time>
      </trkpt>
      <trkpt lat="49.15259" lon="2.0852">
        <ele>92.199996948242</ele>
        <time>2014-03-30T09:48:11Z</time>
      </trkpt>
      <trkpt lat="49.15259" lon="2.08505">
        <ele>92.199996948242</ele>
        <time>2014-03-30T09:48:30Z</time>
      </trkpt>
      <trkpt lat="49.15264" lon="2.08499">
        <ele>92.199996948242</ele>
        <time>2014-03-30T09:48:46Z</time>
      </trkpt>
      <trkpt lat="49.15266" lon="2.085">
        <ele>92.199996948242</ele>
        <time>2014-03-30T09:49:34Z</time>
      </trkpt>
      <trkpt lat="49.15275" lon="2.08503">
        <ele>92.199996948242</ele>
        <time>2014-03-30T09:49:39Z</time>
      </trkpt>
      <trkpt lat="49.1534" lon="2.08513">
        <ele>92.800003051758</ele>
        <time>2014-03-30T09:49:55Z</time>
      </trkpt>
      <trkpt lat="49.15488" lon="2.08537">
        <ele>89</ele>
        <time>2014-03-30T09:50:27Z</time>
      </trkpt>
      <trkpt lat="49.15497" lon="2.08538">
        <ele>94.199996948242</ele>
        <time>2014-03-30T09:50:29Z</time>
      </trkpt>
      <trkpt lat="49.15511" lon="2.08536">
        <ele>93.599998474121</ele>
        <time>2014-03-30T09:50:32Z</time>
      </trkpt>
      <trkpt lat="49.15523" lon="2.08484">
        <ele>92.800003051758</ele>
        <time>2014-03-30T09:50:40Z</time>
      </trkpt>
      <trkpt lat="49.15529" lon="2.08345">
        <ele>89</ele>
        <time>2014-03-30T09:50:53Z</time>
      </trkpt>
      <trkpt lat="49.15529" lon="2.08306">
        <ele>86.800003051758</ele>
        <time>2014-03-30T09:50:56Z</time>
      </trkpt>
      <trkpt lat="49.1551" lon="2.08212">
        <ele>83.800003051758</ele>
        <time>2014-03-30T09:51:03Z</time>
      </trkpt>
      <trkpt lat="49.15505" lon="2.082">
        <ele>83.599998474121</ele>
        <time>2014-03-30T09:51:04Z</time>
      </trkpt>
      <trkpt lat="49.15484" lon="2.0814">
        <ele>82.199996948242</ele>
        <time>2014-03-30T09:51:09Z</time>
      </trkpt>
      <trkpt lat="49.15471" lon="2.08105">
        <ele>81.400001525879</ele>
        <time>2014-03-30T09:51:13Z</time>
      </trkpt>
      <trkpt lat="49.15444" lon="2.07964">
        <ele>78.800003051758</ele>
        <time>2014-03-30T09:51:29Z</time>
      </trkpt>
      <trkpt lat="49.15439" lon="2.07911">
        <ele>76.599998474121</ele>
        <time>2014-03-30T09:51:33Z</time>
      </trkpt>
      <trkpt lat="49.15406" lon="2.07822">
        <ele>73.599998474121</ele>
        <time>2014-03-30T09:51:40Z</time>
      </trkpt>
      <trkpt lat="49.154" lon="2.0781">
        <ele>73</ele>
        <time>2014-03-30T09:51:41Z</time>
      </trkpt>
      <trkpt lat="49.15385" lon="2.07723">
        <ele>68.800003051758</ele>
        <time>2014-03-30T09:51:47Z</time>
      </trkpt>
      <trkpt lat="49.1539" lon="2.07692">
        <ele>67.599998474121</ele>
        <time>2014-03-30T09:51:49Z</time>
      </trkpt>
      <trkpt lat="49.15407" lon="2.07596">
        <ele>64.599998474121</ele>
        <time>2014-03-30T09:51:56Z</time>
      </trkpt>
      <trkpt lat="49.1542" lon="2.07532">
        <ele>62.599998474121</ele>
        <time>2014-03-30T09:52:01Z</time>
      </trkpt>
      <trkpt lat="49.15432" lon="2.07516">
        <ele>61.799999237061</ele>
        <time>2014-03-30T09:52:03Z</time>
      </trkpt>
      <trkpt lat="49.15448" lon="2.07501">
        <ele>61.599998474121</ele>
        <time>2014-03-30T09:52:06Z</time>
      </trkpt>
      <trkpt lat="49.15439" lon="2.0746">
        <ele>61.599998474121</ele>
        <time>2014-03-30T09:52:11Z</time>
      </trkpt>
      <trkpt lat="49.15436" lon="2.07451">
        <ele>61.599998474121</ele>
        <time>2014-03-30T09:52:12Z</time>
      </trkpt>
      <trkpt lat="49.15355" lon="2.0722">
        <ele>62.400001525879</ele>
        <time>2014-03-30T09:52:39Z</time>
      </trkpt>
      <trkpt lat="49.15341" lon="2.07192">
        <ele>63.200000762939</ele>
        <time>2014-03-30T09:52:43Z</time>
      </trkpt>
      <trkpt lat="49.15332" lon="2.0718">
        <ele>63.400001525879</ele>
        <time>2014-03-30T09:52:45Z</time>
      </trkpt>
      <trkpt lat="49.15297" lon="2.07151">
        <ele>63.599998474121</ele>
        <time>2014-03-30T09:52:52Z</time>
      </trkpt>
      <trkpt lat="49.15282" lon="2.07141">
        <ele>64.199996948242</ele>
        <time>2014-03-30T09:52:56Z</time>
      </trkpt>
      <trkpt lat="49.15272" lon="2.07109">
        <ele>66.199996948242</ele>
        <time>2014-03-30T09:53:05Z</time>
      </trkpt>
      <trkpt lat="49.15259" lon="2.07118">
        <ele>67.800003051758</ele>
        <time>2014-03-30T09:53:11Z</time>
      </trkpt>
      <trkpt lat="49.15241" lon="2.07148">
        <ele>71</ele>
        <time>2014-03-30T09:53:22Z</time>
      </trkpt>
      <trkpt lat="49.1523" lon="2.07175">
        <ele>73.400001525879</ele>
        <time>2014-03-30T09:53:31Z</time>
      </trkpt>
      <trkpt lat="49.15222" lon="2.07212">
        <ele>76.599998474121</ele>
        <time>2014-03-30T09:53:42Z</time>
      </trkpt>
      <trkpt lat="49.15211" lon="2.0726">
        <ele>80</ele>
        <time>2014-03-30T09:53:57Z</time>
      </trkpt>
      <trkpt lat="49.1521" lon="2.07261">
        <ele>80.199996948242</ele>
        <time>2014-03-30T09:53:58Z</time>
      </trkpt>
      <trkpt lat="49.15206" lon="2.0727">
        <ele>81.199996948242</ele>
        <time>2014-03-30T09:54:02Z</time>
      </trkpt>
      <trkpt lat="49.15191" lon="2.07302">
        <ele>83.599998474121</ele>
        <time>2014-03-30T09:54:11Z</time>
      </trkpt>
      <trkpt lat="49.15184" lon="2.0732">
        <ele>84.800003051758</ele>
        <time>2014-03-30T09:54:17Z</time>
      </trkpt>
      <trkpt lat="49.15173" lon="2.0734">
        <ele>86</ele>
        <time>2014-03-30T09:54:23Z</time>
      </trkpt>
      <trkpt lat="49.15163" lon="2.07361">
        <ele>87.199996948242</ele>
        <time>2014-03-30T09:54:29Z</time>
      </trkpt>
      <trkpt lat="49.15154" lon="2.07382">
        <ele>88.400001525879</ele>
        <time>2014-03-30T09:54:35Z</time>
      </trkpt>
      <trkpt lat="49.15144" lon="2.07391">
        <ele>89</ele>
        <time>2014-03-30T09:54:41Z</time>
      </trkpt>
      <trkpt lat="49.15144" lon="2.07355">
        <ele>89.599998474121</ele>
        <time>2014-03-30T09:54:54Z</time>
      </trkpt>
      <trkpt lat="49.15143" lon="2.07347">
        <ele>90.199996948242</ele>
        <time>2014-03-30T09:54:57Z</time>
      </trkpt>
      <trkpt lat="49.15118" lon="2.07236">
        <ele>93.400001525879</ele>
        <time>2014-03-30T09:55:27Z</time>
      </trkpt>
      <trkpt lat="49.15056" lon="2.07054">
        <ele>96.599998474121</ele>
        <time>2014-03-30T09:56:06Z</time>
      </trkpt>
      <trkpt lat="49.15034" lon="2.07026">
        <ele>98</ele>
        <time>2014-03-30T09:56:14Z</time>
      </trkpt>
      <trkpt lat="49.14987" lon="2.06965">
        <ele>101</ele>
        <time>2014-03-30T09:56:31Z</time>
      </trkpt>
      <trkpt lat="49.14961" lon="2.06935">
        <ele>102.40000152588</ele>
        <time>2014-03-30T09:56:40Z</time>
      </trkpt>
      <trkpt lat="49.14877" lon="2.06858">
        <ele>105.59999847412</ele>
        <time>2014-03-30T09:57:08Z</time>
      </trkpt>
      <trkpt lat="49.14851" lon="2.06847">
        <ele>106.40000152588</ele>
        <time>2014-03-30T09:57:30Z</time>
      </trkpt>
      <trkpt lat="49.14846" lon="2.0685">
        <ele>105.80000305176</ele>
        <time>2014-03-30T09:58:13Z</time>
      </trkpt>
      <trkpt lat="49.14826" lon="2.06824">
        <ele>105.80000305176</ele>
        <time>2014-03-30T09:58:27Z</time>
      </trkpt>
      <trkpt lat="49.14813" lon="2.06796">
        <ele>104.19999694824</ele>
        <time>2014-03-30T09:58:34Z</time>
      </trkpt>
      <trkpt lat="49.14777" lon="2.0673">
        <ele>100</ele>
        <time>2014-03-30T09:58:44Z</time>
      </trkpt>
      <trkpt lat="49.14755" lon="2.06673">
        <ele>96.599998474121</ele>
        <time>2014-03-30T09:58:50Z</time>
      </trkpt>
      <trkpt lat="49.14733" lon="2.06602">
        <ele>93.199996948242</ele>
        <time>2014-03-30T09:58:57Z</time>
      </trkpt>
      <trkpt lat="49.14717" lon="2.06557">
        <ele>91</ele>
        <time>2014-03-30T09:59:02Z</time>
      </trkpt>
      <trkpt lat="49.14702" lon="2.06531">
        <ele>90</ele>
        <time>2014-03-30T09:59:06Z</time>
      </trkpt>
      <trkpt lat="49.14695" lon="2.06521">
        <ele>89.599998474121</ele>
        <time>2014-03-30T09:59:08Z</time>
      </trkpt>
      <trkpt lat="49.14678" lon="2.06485">
        <ele>88.400001525879</ele>
        <time>2014-03-30T09:59:14Z</time>
      </trkpt>
      <trkpt lat="49.14652" lon="2.06427">
        <ele>86.599998474121</ele>
        <time>2014-03-30T09:59:27Z</time>
      </trkpt>
      <trkpt lat="49.14626" lon="2.0638">
        <ele>84</ele>
        <time>2014-03-30T09:59:39Z</time>
      </trkpt>
      <trkpt lat="49.14614" lon="2.06344">
        <ele>82</ele>
        <time>2014-03-30T09:59:44Z</time>
      </trkpt>
      <trkpt lat="49.14611" lon="2.06328">
        <ele>81</ele>
        <time>2014-03-30T09:59:46Z</time>
      </trkpt>
      <trkpt lat="49.14599" lon="2.06295">
        <ele>79.599998474121</ele>
        <time>2014-03-30T09:59:50Z</time>
      </trkpt>
      <trkpt lat="49.14562" lon="2.06246">
        <ele>76.400001525879</ele>
        <time>2014-03-30T09:59:57Z</time>
      </trkpt>
      <trkpt lat="49.14558" lon="2.06242">
        <ele>76</ele>
        <time>2014-03-30T09:59:58Z</time>
      </trkpt>
      <trkpt lat="49.14536" lon="2.06221">
        <ele>72.400001525879</ele>
        <time>2014-03-30T10:00:05Z</time>
      </trkpt>
      <trkpt lat="49.14527" lon="2.06206">
        <ele>69.599998474121</ele>
        <time>2014-03-30T10:00:10Z</time>
      </trkpt>
      <trkpt lat="49.14519" lon="2.06197">
        <ele>68</ele>
        <time>2014-03-30T10:00:12Z</time>
      </trkpt>
      <trkpt lat="49.14502" lon="2.06178">
        <ele>64.599998474121</ele>
        <time>2014-03-30T10:00:16Z</time>
      </trkpt>
      <trkpt lat="49.1446" lon="2.06158">
        <ele>62.599998474121</ele>
        <time>2014-03-30T10:00:26Z</time>
      </trkpt>
      <trkpt lat="49.1445" lon="2.06162">
        <ele>62.799999237061</ele>
        <time>2014-03-30T10:00:28Z</time>
      </trkpt>
      <trkpt lat="49.14435" lon="2.0617">
        <ele>63.200000762939</ele>
        <time>2014-03-30T10:00:31Z</time>
      </trkpt>
      <trkpt lat="49.14396" lon="2.06206">
        <ele>63.200000762939</ele>
        <time>2014-03-30T10:00:42Z</time>
      </trkpt>
      <trkpt lat="49.14354" lon="2.06312">
        <ele>62.799999237061</ele>
        <time>2014-03-30T10:01:03Z</time>
      </trkpt>
      <trkpt lat="49.14311" lon="2.06386">
        <ele>63</ele>
        <time>2014-03-30T10:01:27Z</time>
      </trkpt>
      <trkpt lat="49.14267" lon="2.06493">
        <ele>63.400001525879</ele>
        <time>2014-03-30T10:01:52Z</time>
      </trkpt>
      <trkpt lat="49.14257" lon="2.06608">
        <ele>61</ele>
        <time>2014-03-30T10:02:09Z</time>
      </trkpt>
      <trkpt lat="49.14245" lon="2.06754">
        <ele>58.799999237061</ele>
        <time>2014-03-30T10:02:31Z</time>
      </trkpt>
      <trkpt lat="49.14251" lon="2.06795">
        <ele>58.400001525879</ele>
        <time>2014-03-30T10:02:38Z</time>
      </trkpt>
      <trkpt lat="49.14255" lon="2.06817">
        <ele>58.200000762939</ele>
        <time>2014-03-30T10:02:43Z</time>
      </trkpt>
      <trkpt lat="49.14254" lon="2.06838">
        <ele>58.200000762939</ele>
        <time>2014-03-30T10:02:48Z</time>
      </trkpt>
      <trkpt lat="49.14256" lon="2.06876">
        <ele>59.200000762939</ele>
        <time>2014-03-30T10:03:08Z</time>
      </trkpt>
      <trkpt lat="49.1426" lon="2.06891">
        <ele>60</ele>
        <time>2014-03-30T10:03:43Z</time>
      </trkpt>
      <trkpt lat="49.1426" lon="2.06912">
        <ele>62.200000762939</ele>
        <time>2014-03-30T10:03:51Z</time>
      </trkpt>
      <trkpt lat="49.14256" lon="2.0693">
        <ele>65.400001525879</ele>
        <time>2014-03-30T10:03:58Z</time>
      </trkpt>
      <trkpt lat="49.14243" lon="2.06957">
        <ele>68</ele>
        <time>2014-03-30T10:04:13Z</time>
      </trkpt>
      <trkpt lat="49.14231" lon="2.06974">
        <ele>70</ele>
        <time>2014-03-30T10:04:24Z</time>
      </trkpt>
      <trkpt lat="49.14214" lon="2.06975">
        <ele>72.400001525879</ele>
        <time>2014-03-30T10:04:36Z</time>
      </trkpt>
      <trkpt lat="49.1419" lon="2.06967">
        <ele>75.800003051758</ele>
        <time>2014-03-30T10:04:47Z</time>
      </trkpt>
      <trkpt lat="49.14186" lon="2.06966">
        <ele>76</ele>
        <time>2014-03-30T10:04:49Z</time>
      </trkpt>
      <trkpt lat="49.1414" lon="2.06953">
        <ele>79</ele>
        <time>2014-03-30T10:05:11Z</time>
      </trkpt>
      <trkpt lat="49.14115" lon="2.06941">
        <ele>82.400001525879</ele>
        <time>2014-03-30T10:05:23Z</time>
      </trkpt>
      <trkpt lat="49.14074" lon="2.06922">
        <ele>85.599998474121</ele>
        <time>2014-03-30T10:05:42Z</time>
      </trkpt>
      <trkpt lat="49.14002" lon="2.06893">
        <ele>86.400001525879</ele>
        <time>2014-03-30T10:06:08Z</time>
      </trkpt>
      <trkpt lat="49.13923" lon="2.06855">
        <ele>87.800003051758</ele>
        <time>2014-03-30T10:06:29Z</time>
      </trkpt>
      <trkpt lat="49.13883" lon="2.0684">
        <ele>90.800003051758</ele>
        <time>2014-03-30T10:06:37Z</time>
      </trkpt>
      <trkpt lat="49.13848" lon="2.06823">
        <ele>94.599998474121</ele>
        <time>2014-03-30T10:06:45Z</time>
      </trkpt>
      <trkpt lat="49.1384" lon="2.06819">
        <ele>95.599998474121</ele>
        <time>2014-03-30T10:06:50Z</time>
      </trkpt>
      <trkpt lat="49.1384" lon="2.06813">
        <ele>95.800003051758</ele>
        <time>2014-03-30T10:06:53Z</time>
      </trkpt>
      <trkpt lat="49.13835" lon="2.06804">
        <ele>95.400001525879</ele>
        <time>2014-03-30T10:07:06Z</time>
      </trkpt>
      <trkpt lat="49.13834" lon="2.06805">
        <ele>95.599998474121</ele>
        <time>2014-03-30T10:07:58Z</time>
      </trkpt>
      <trkpt lat="49.13832" lon="2.06807">
        <ele>95.599998474121</ele>
        <time>2014-03-30T10:09:59Z</time>
      </trkpt>
      <trkpt lat="49.13829" lon="2.06808">
        <ele>95.199996948242</ele>
        <time>2014-03-30T10:10:21Z</time>
      </trkpt>
      <trkpt lat="49.13809" lon="2.06774">
        <ele>92.400001525879</ele>
        <time>2014-03-30T10:10:29Z</time>
      </trkpt>
      <trkpt lat="49.138" lon="2.06752">
        <ele>91.599998474121</ele>
        <time>2014-03-30T10:10:32Z</time>
      </trkpt>
      <trkpt lat="49.13776" lon="2.06689">
        <ele>88.400001525879</ele>
        <time>2014-03-30T10:10:40Z</time>
      </trkpt>
      <trkpt lat="49.13766" lon="2.06663">
        <ele>87.800003051758</ele>
        <time>2014-03-30T10:10:43Z</time>
      </trkpt>
      <trkpt lat="49.13762" lon="2.06654">
        <ele>87.599998474121</ele>
        <time>2014-03-30T10:10:44Z</time>
      </trkpt>
      <trkpt lat="49.13727" lon="2.06606">
        <ele>87.400001525879</ele>
        <time>2014-03-30T10:10:51Z</time>
      </trkpt>
      <trkpt lat="49.13714" lon="2.06569">
        <ele>87.599998474121</ele>
        <time>2014-03-30T10:10:56Z</time>
      </trkpt>
      <trkpt lat="49.13691" lon="2.06476">
        <ele>89.400001525879</ele>
        <time>2014-03-30T10:11:11Z</time>
      </trkpt>
      <trkpt lat="49.13687" lon="2.06417">
        <ele>92</ele>
        <time>2014-03-30T10:11:21Z</time>
      </trkpt>
      <trkpt lat="49.13677" lon="2.06351">
        <ele>95.400001525879</ele>
        <time>2014-03-30T10:11:31Z</time>
      </trkpt>
      <trkpt lat="49.13676" lon="2.06344">
        <ele>95.599998474121</ele>
        <time>2014-03-30T10:11:32Z</time>
      </trkpt>
      <trkpt lat="49.13673" lon="2.06329">
        <ele>96.599998474121</ele>
        <time>2014-03-30T10:11:34Z</time>
      </trkpt>
      <trkpt lat="49.13655" lon="2.06261">
        <ele>100.19999694824</ele>
        <time>2014-03-30T10:11:44Z</time>
      </trkpt>
      <trkpt lat="49.13646" lon="2.06227">
        <ele>101.80000305176</ele>
        <time>2014-03-30T10:11:49Z</time>
      </trkpt>
      <trkpt lat="49.13638" lon="2.06195">
        <ele>103.19999694824</ele>
        <time>2014-03-30T10:11:54Z</time>
      </trkpt>
      <trkpt lat="49.13625" lon="2.06151">
        <ele>105.19999694824</ele>
        <time>2014-03-30T10:12:02Z</time>
      </trkpt>
      <trkpt lat="49.13592" lon="2.06068">
        <ele>108.59999847412</ele>
        <time>2014-03-30T10:12:20Z</time>
      </trkpt>
      <trkpt lat="49.13554" lon="2.06008">
        <ele>111.19999694824</ele>
        <time>2014-03-30T10:12:36Z</time>
      </trkpt>
      <trkpt lat="49.13506" lon="2.0593">
        <ele>114.59999847412</ele>
        <time>2014-03-30T10:12:56Z</time>
      </trkpt>
      <trkpt lat="49.1347" lon="2.0587">
        <ele>118</ele>
        <time>2014-03-30T10:13:11Z</time>
      </trkpt>
      <trkpt lat="49.13449" lon="2.05834">
        <ele>119.59999847412</ele>
        <time>2014-03-30T10:13:20Z</time>
      </trkpt>
      <trkpt lat="49.13419" lon="2.05782">
        <ele>123</ele>
        <time>2014-03-30T10:13:34Z</time>
      </trkpt>
      <trkpt lat="49.13393" lon="2.05738">
        <ele>126.59999847412</ele>
        <time>2014-03-30T10:13:46Z</time>
      </trkpt>
      <trkpt lat="49.13371" lon="2.05712">
        <ele>129</ele>
        <time>2014-03-30T10:13:55Z</time>
      </trkpt>
      <trkpt lat="49.1333" lon="2.05667">
        <ele>132.60000610352</ele>
        <time>2014-03-30T10:14:10Z</time>
      </trkpt>
      <trkpt lat="49.13299" lon="2.0565">
        <ele>136</ele>
        <time>2014-03-30T10:14:20Z</time>
      </trkpt>
      <trkpt lat="49.13272" lon="2.05639">
        <ele>138</ele>
        <time>2014-03-30T10:14:30Z</time>
      </trkpt>
      <trkpt lat="49.13241" lon="2.05619">
        <ele>141.39999389648</ele>
        <time>2014-03-30T10:14:45Z</time>
      </trkpt>
      <trkpt lat="49.13237" lon="2.05617">
        <ele>141.60000610352</ele>
        <time>2014-03-30T10:14:47Z</time>
      </trkpt>
      <trkpt lat="49.13203" lon="2.05583">
        <ele>144.60000610352</ele>
        <time>2014-03-30T10:15:04Z</time>
      </trkpt>
      <trkpt lat="49.13151" lon="2.05487">
        <ele>147.19999694824</ele>
        <time>2014-03-30T10:15:35Z</time>
      </trkpt>
      <trkpt lat="49.13124" lon="2.05445">
        <ele>147.19999694824</ele>
        <time>2014-03-30T10:15:57Z</time>
      </trkpt>
      <trkpt lat="49.13074" lon="2.05361">
        <ele>146.80000305176</ele>
        <time>2014-03-30T10:16:37Z</time>
      </trkpt>
      <trkpt lat="49.13069" lon="2.05349">
        <ele>146.39999389648</ele>
        <time>2014-03-30T10:16:42Z</time>
      </trkpt>
      <trkpt lat="49.1308" lon="2.05368">
        <ele>146</ele>
        <time>2014-03-30T10:16:51Z</time>
      </trkpt>
      <trkpt lat="49.13125" lon="2.05448">
        <ele>145.80000305176</ele>
        <time>2014-03-30T10:17:12Z</time>
      </trkpt>
      <trkpt lat="49.13129" lon="2.05457">
        <ele>146</ele>
        <time>2014-03-30T10:17:15Z</time>
      </trkpt>
      <trkpt lat="49.13125" lon="2.05444">
        <ele>146.19999694824</ele>
        <time>2014-03-30T10:17:21Z</time>
      </trkpt>
      <trkpt lat="49.13111" lon="2.05422">
        <ele>146.39999389648</ele>
        <time>2014-03-30T10:17:32Z</time>
      </trkpt>
      <trkpt lat="49.13072" lon="2.05347">
        <ele>146.39999389648</ele>
        <time>2014-03-30T10:18:06Z</time>
      </trkpt>
      <trkpt lat="49.13062" lon="2.05308">
        <ele>145.19999694824</ele>
        <time>2014-03-30T10:18:34Z</time>
      </trkpt>
      <trkpt lat="49.13061" lon="2.05307">
        <ele>145.60000610352</ele>
        <time>2014-03-30T10:20:16Z</time>
      </trkpt>
      <trkpt lat="49.13049" lon="2.05286">
        <ele>145.19999694824</ele>
        <time>2014-03-30T10:20:24Z</time>
      </trkpt>
      <trkpt lat="49.13016" lon="2.05242">
        <ele>142</ele>
        <time>2014-03-30T10:20:35Z</time>
      </trkpt>
      <trkpt lat="49.13013" lon="2.05242">
        <ele>141.80000305176</ele>
        <time>2014-03-30T10:20:36Z</time>
      </trkpt>
      <trkpt lat="49.12985" lon="2.05276">
        <ele>145.19999694824</ele>
        <time>2014-03-30T10:20:48Z</time>
      </trkpt>
      <trkpt lat="49.12979" lon="2.05283">
        <ele>145.39999389648</ele>
        <time>2014-03-30T10:20:50Z</time>
      </trkpt>
      <trkpt lat="49.12961" lon="2.05301">
        <ele>144.60000610352</ele>
        <time>2014-03-30T10:20:55Z</time>
      </trkpt>
      <trkpt lat="49.12932" lon="2.05322">
        <ele>143.19999694824</ele>
        <time>2014-03-30T10:21:01Z</time>
      </trkpt>
      <trkpt lat="49.12901" lon="2.05347">
        <ele>140.19999694824</ele>
        <time>2014-03-30T10:21:06Z</time>
      </trkpt>
      <trkpt lat="49.12855" lon="2.05386">
        <ele>136.60000610352</ele>
        <time>2014-03-30T10:21:12Z</time>
      </trkpt>
      <trkpt lat="49.12815" lon="2.05423">
        <ele>133</ele>
        <time>2014-03-30T10:21:17Z</time>
      </trkpt>
      <trkpt lat="49.12792" lon="2.05446">
        <ele>130.19999694824</ele>
        <time>2014-03-30T10:21:20Z</time>
      </trkpt>
      <trkpt lat="49.12772" lon="2.05472">
        <ele>129.60000610352</ele>
        <time>2014-03-30T10:21:23Z</time>
      </trkpt>
      <trkpt lat="49.1272" lon="2.05557">
        <ele>131.19999694824</ele>
        <time>2014-03-30T10:21:37Z</time>
      </trkpt>
      <trkpt lat="49.12693" lon="2.05566">
        <ele>128.60000610352</ele>
        <time>2014-03-30T10:21:43Z</time>
      </trkpt>
      <trkpt lat="49.1266" lon="2.05572">
        <ele>126.19999694824</ele>
        <time>2014-03-30T10:21:53Z</time>
      </trkpt>
      <trkpt lat="49.12637" lon="2.05567">
        <ele>126.40000152588</ele>
        <time>2014-03-30T10:21:58Z</time>
      </trkpt>
      <trkpt lat="49.12613" lon="2.05561">
        <ele>127.80000305176</ele>
        <time>2014-03-30T10:22:03Z</time>
      </trkpt>
      <trkpt lat="49.12603" lon="2.05559">
        <ele>128.19999694824</ele>
        <time>2014-03-30T10:22:05Z</time>
      </trkpt>
      <trkpt lat="49.12565" lon="2.05571">
        <ele>128.80000305176</ele>
        <time>2014-03-30T10:22:13Z</time>
      </trkpt>
      <trkpt lat="49.12556" lon="2.05575">
        <ele>129.19999694824</ele>
        <time>2014-03-30T10:22:15Z</time>
      </trkpt>
      <trkpt lat="49.12552" lon="2.05578">
        <ele>129.39999389648</ele>
        <time>2014-03-30T10:22:16Z</time>
      </trkpt>
      <trkpt lat="49.12488" lon="2.05647">
        <ele>131.80000305176</ele>
        <time>2014-03-30T10:22:39Z</time>
      </trkpt>
      <trkpt lat="49.12455" lon="2.05685">
        <ele>133.80000305176</ele>
        <time>2014-03-30T10:22:51Z</time>
      </trkpt>
      <trkpt lat="49.12428" lon="2.05751">
        <ele>136.60000610352</ele>
        <time>2014-03-30T10:23:10Z</time>
      </trkpt>
      <trkpt lat="49.12403" lon="2.05846">
        <ele>138.39999389648</ele>
        <time>2014-03-30T10:23:33Z</time>
      </trkpt>
      <trkpt lat="49.12382" lon="2.05912">
        <ele>139.60000610352</ele>
        <time>2014-03-30T10:23:50Z</time>
      </trkpt>
      <trkpt lat="49.12347" lon="2.05979">
        <ele>138.39999389648</ele>
        <time>2014-03-30T10:24:03Z</time>
      </trkpt>
      <trkpt lat="49.12335" lon="2.05998">
        <ele>137.60000610352</ele>
        <time>2014-03-30T10:24:07Z</time>
      </trkpt>
      <trkpt lat="49.12304" lon="2.06082">
        <ele>137.60000610352</ele>
        <time>2014-03-30T10:24:26Z</time>
      </trkpt>
      <trkpt lat="49.12304" lon="2.06093">
        <ele>137.60000610352</ele>
        <time>2014-03-30T10:24:40Z</time>
      </trkpt>
      <trkpt lat="49.12303" lon="2.06095">
        <ele>137.60000610352</ele>
        <time>2014-03-30T10:24:43Z</time>
      </trkpt>
      <trkpt lat="49.12289" lon="2.06104">
        <ele>137</ele>
        <time>2014-03-30T10:24:48Z</time>
      </trkpt>
      <trkpt lat="49.12271" lon="2.06114">
        <ele>136.60000610352</ele>
        <time>2014-03-30T10:24:52Z</time>
      </trkpt>
      <trkpt lat="49.12268" lon="2.06119">
        <ele>136.60000610352</ele>
        <time>2014-03-30T10:24:53Z</time>
      </trkpt>
      <trkpt lat="49.12256" lon="2.06136">
        <ele>137</ele>
        <time>2014-03-30T10:24:58Z</time>
      </trkpt>
      <trkpt lat="49.1223" lon="2.06155">
        <ele>135.60000610352</ele>
        <time>2014-03-30T10:25:04Z</time>
      </trkpt>
      <trkpt lat="49.12215" lon="2.06159">
        <ele>134.60000610352</ele>
        <time>2014-03-30T10:25:07Z</time>
      </trkpt>
      <trkpt lat="49.12211" lon="2.06159">
        <ele>134.19999694824</ele>
        <time>2014-03-30T10:25:08Z</time>
      </trkpt>
      <trkpt lat="49.12194" lon="2.06179">
        <ele>131.19999694824</ele>
        <time>2014-03-30T10:25:14Z</time>
      </trkpt>
      <trkpt lat="49.12192" lon="2.06181">
        <ele>131</ele>
        <time>2014-03-30T10:25:15Z</time>
      </trkpt>
      <trkpt lat="49.12172" lon="2.06191">
        <ele>129.80000305176</ele>
        <time>2014-03-30T10:25:21Z</time>
      </trkpt>
      <trkpt lat="49.12154" lon="2.062">
        <ele>128.39999389648</ele>
        <time>2014-03-30T10:25:24Z</time>
      </trkpt>
      <trkpt lat="49.12132" lon="2.0621">
        <ele>126</ele>
        <time>2014-03-30T10:25:27Z</time>
      </trkpt>
      <trkpt lat="49.12097" lon="2.0623">
        <ele>123.19999694824</ele>
        <time>2014-03-30T10:25:31Z</time>
      </trkpt>
      <trkpt lat="49.12054" lon="2.06211">
        <ele>120.80000305176</ele>
        <time>2014-03-30T10:25:37Z</time>
      </trkpt>
      <trkpt lat="49.12048" lon="2.0619">
        <ele>120.19999694824</ele>
        <time>2014-03-30T10:25:39Z</time>
      </trkpt>
      <trkpt lat="49.12042" lon="2.0617">
        <ele>119.59999847412</ele>
        <time>2014-03-30T10:25:41Z</time>
      </trkpt>
      <trkpt lat="49.11998" lon="2.06113">
        <ele>116</ele>
        <time>2014-03-30T10:25:50Z</time>
      </trkpt>
      <trkpt lat="49.1196" lon="2.06171">
        <ele>112.19999694824</ele>
        <time>2014-03-30T10:25:57Z</time>
      </trkpt>
      <trkpt lat="49.11957" lon="2.06185">
        <ele>111.59999847412</ele>
        <time>2014-03-30T10:25:58Z</time>
      </trkpt>
      <trkpt lat="49.11954" lon="2.06198">
        <ele>110.80000305176</ele>
        <time>2014-03-30T10:25:59Z</time>
      </trkpt>
      <trkpt lat="49.11931" lon="2.06234">
        <ele>107.59999847412</ele>
        <time>2014-03-30T10:26:03Z</time>
      </trkpt>
      <trkpt lat="49.11882" lon="2.06242">
        <ele>104.40000152588</ele>
        <time>2014-03-30T10:26:08Z</time>
      </trkpt>
      <trkpt lat="49.11871" lon="2.06243">
        <ele>103.80000305176</ele>
        <time>2014-03-30T10:26:09Z</time>
      </trkpt>
      <trkpt lat="49.11828" lon="2.06248">
        <ele>100.80000305176</ele>
        <time>2014-03-30T10:26:13Z</time>
      </trkpt>
      <trkpt lat="49.11796" lon="2.06245">
        <ele>98.199996948242</ele>
        <time>2014-03-30T10:26:16Z</time>
      </trkpt>
      <trkpt lat="49.11786" lon="2.06242">
        <ele>97.800003051758</ele>
        <time>2014-03-30T10:26:17Z</time>
      </trkpt>
      <trkpt lat="49.11733" lon="2.06224">
        <ele>96</ele>
        <time>2014-03-30T10:26:23Z</time>
      </trkpt>
      <trkpt lat="49.11614" lon="2.06184">
        <ele>97</ele>
        <time>2014-03-30T10:26:40Z</time>
      </trkpt>
      <trkpt lat="49.11571" lon="2.06174">
        <ele>97.400001525879</ele>
        <time>2014-03-30T10:26:47Z</time>
      </trkpt>
      <trkpt lat="49.11544" lon="2.06162">
        <ele>97.800003051758</ele>
        <time>2014-03-30T10:26:51Z</time>
      </trkpt>
      <trkpt lat="49.11497" lon="2.06147">
        <ele>98</ele>
        <time>2014-03-30T10:26:58Z</time>
      </trkpt>
      <trkpt lat="49.11423" lon="2.0612">
        <ele>99.199996948242</ele>
        <time>2014-03-30T10:27:11Z</time>
      </trkpt>
      <trkpt lat="49.11258" lon="2.0604">
        <ele>99.599998474121</ele>
        <time>2014-03-30T10:27:36Z</time>
      </trkpt>
      <trkpt lat="49.11165" lon="2.05989">
        <ele>99</ele>
        <time>2014-03-30T10:27:52Z</time>
      </trkpt>
      <trkpt lat="49.11074" lon="2.05906">
        <ele>95.599998474121</ele>
        <time>2014-03-30T10:28:08Z</time>
      </trkpt>
      <trkpt lat="49.11051" lon="2.05886">
        <ele>94.400001525879</ele>
        <time>2014-03-30T10:28:11Z</time>
      </trkpt>
      <trkpt lat="49.11009" lon="2.0586">
        <ele>91.599998474121</ele>
        <time>2014-03-30T10:28:16Z</time>
      </trkpt>
      <trkpt lat="49.10961" lon="2.05849">
        <ele>88.400001525879</ele>
        <time>2014-03-30T10:28:21Z</time>
      </trkpt>
      <trkpt lat="49.10886" lon="2.0584">
        <ele>84.400001525879</ele>
        <time>2014-03-30T10:28:29Z</time>
      </trkpt>
      <trkpt lat="49.10847" lon="2.05833">
        <ele>82.800003051758</ele>
        <time>2014-03-30T10:28:33Z</time>
      </trkpt>
      <trkpt lat="49.1076" lon="2.05816">
        <ele>79.400001525879</ele>
        <time>2014-03-30T10:28:42Z</time>
      </trkpt>
      <trkpt lat="49.1062" lon="2.05789">
        <ele>77.199996948242</ele>
        <time>2014-03-30T10:29:02Z</time>
      </trkpt>
      <trkpt lat="49.10601" lon="2.05796">
        <ele>76.800003051758</ele>
        <time>2014-03-30T10:29:07Z</time>
      </trkpt>
      <trkpt lat="49.10567" lon="2.05811">
        <ele>76.800003051758</ele>
        <time>2014-03-30T10:29:16Z</time>
      </trkpt>
      <trkpt lat="49.10547" lon="2.05821">
        <ele>77.199996948242</ele>
        <time>2014-03-30T10:29:26Z</time>
      </trkpt>
      <trkpt lat="49.10522" lon="2.05829">
        <ele>77.800003051758</ele>
        <time>2014-03-30T10:29:40Z</time>
      </trkpt>
      <trkpt lat="49.10522" lon="2.05829">
        <ele>77.599998474121</ele>
        <time>2014-03-30T10:30:01Z</time>
      </trkpt>
      <trkpt lat="49.10497" lon="2.0584">
        <ele>78.199996948242</ele>
        <time>2014-03-30T10:30:40Z</time>
      </trkpt>
      <trkpt lat="49.10461" lon="2.05863">
        <ele>79.800003051758</ele>
        <time>2014-03-30T10:30:55Z</time>
      </trkpt>
      <trkpt lat="49.10342" lon="2.05912">
        <ele>81</ele>
        <time>2014-03-30T10:31:26Z</time>
      </trkpt>
      <trkpt lat="49.10304" lon="2.05915">
        <ele>81.199996948242</ele>
        <time>2014-03-30T10:31:34Z</time>
      </trkpt>
      <trkpt lat="49.10239" lon="2.0592">
        <ele>81.800003051758</ele>
        <time>2014-03-30T10:31:48Z</time>
      </trkpt>
      <trkpt lat="49.10116" lon="2.05933">
        <ele>83.199996948242</ele>
        <time>2014-03-30T10:32:15Z</time>
      </trkpt>
      <trkpt lat="49.10062" lon="2.05951">
        <ele>82.800003051758</ele>
        <time>2014-03-30T10:32:32Z</time>
      </trkpt>
      <trkpt lat="49.10034" lon="2.06017">
        <ele>80.599998474121</ele>
        <time>2014-03-30T10:32:46Z</time>
      </trkpt>
      <trkpt lat="49.10021" lon="2.06077">
        <ele>77.199996948242</ele>
        <time>2014-03-30T10:32:59Z</time>
      </trkpt>
      <trkpt lat="49.10013" lon="2.0613">
        <ele>74</ele>
        <time>2014-03-30T10:33:11Z</time>
      </trkpt>
      <trkpt lat="49.10013" lon="2.06134">
        <ele>73.800003051758</ele>
        <time>2014-03-30T10:33:12Z</time>
      </trkpt>
      <trkpt lat="49.10007" lon="2.06213">
        <ele>70.599998474121</ele>
        <time>2014-03-30T10:33:28Z</time>
      </trkpt>
      <trkpt lat="49.10005" lon="2.06225">
        <ele>70</ele>
        <time>2014-03-30T10:33:30Z</time>
      </trkpt>
      <trkpt lat="49.09964" lon="2.06259">
        <ele>67.400001525879</ele>
        <time>2014-03-30T10:33:41Z</time>
      </trkpt>
      <trkpt lat="49.09917" lon="2.06238">
        <ele>67.199996948242</ele>
        <time>2014-03-30T10:33:54Z</time>
      </trkpt>
      <trkpt lat="49.09886" lon="2.06235">
        <ele>67.800003051758</ele>
        <time>2014-03-30T10:34:06Z</time>
      </trkpt>
      <trkpt lat="49.09851" lon="2.06215">
        <ele>70.599998474121</ele>
        <time>2014-03-30T10:34:22Z</time>
      </trkpt>
      <trkpt lat="49.09846" lon="2.06213">
        <ele>71</ele>
        <time>2014-03-30T10:34:24Z</time>
      </trkpt>
      <trkpt lat="49.0979" lon="2.06195">
        <ele>73.800003051758</ele>
        <time>2014-03-30T10:34:44Z</time>
      </trkpt>
      <trkpt lat="49.09726" lon="2.06158">
        <ele>76</ele>
        <time>2014-03-30T10:35:09Z</time>
      </trkpt>
      <trkpt lat="49.09721" lon="2.06156">
        <ele>76.199996948242</ele>
        <time>2014-03-30T10:35:11Z</time>
      </trkpt>
      <trkpt lat="49.09674" lon="2.06129">
        <ele>77.800003051758</ele>
        <time>2014-03-30T10:35:30Z</time>
      </trkpt>
      <trkpt lat="49.09647" lon="2.06152">
        <ele>77.599998474121</ele>
        <time>2014-03-30T10:35:42Z</time>
      </trkpt>
      <trkpt lat="49.09557" lon="2.06254">
        <ele>78.199996948242</ele>
        <time>2014-03-30T10:36:20Z</time>
      </trkpt>
      <trkpt lat="49.09404" lon="2.06421">
        <ele>79.199996948242</ele>
        <time>2014-03-30T10:37:03Z</time>
      </trkpt>
      <trkpt lat="49.09264" lon="2.06547">
        <ele>80.599998474121</ele>
        <time>2014-03-30T10:37:39Z</time>
      </trkpt>
      <trkpt lat="49.09167" lon="2.06633">
        <ele>82.599998474121</ele>
        <time>2014-03-30T10:38:06Z</time>
      </trkpt>
      <trkpt lat="49.09122" lon="2.06667">
        <ele>83.800003051758</ele>
        <time>2014-03-30T10:38:18Z</time>
      </trkpt>
      <trkpt lat="49.09079" lon="2.06691">
        <ele>86.199996948242</ele>
        <time>2014-03-30T10:38:30Z</time>
      </trkpt>
      <trkpt lat="49.09068" lon="2.06694">
        <ele>87.199996948242</ele>
        <time>2014-03-30T10:38:35Z</time>
      </trkpt>
      <trkpt lat="49.09059" lon="2.06659">
        <ele>89.199996948242</ele>
        <time>2014-03-30T10:38:43Z</time>
      </trkpt>
      <trkpt lat="49.09057" lon="2.0665">
        <ele>89.400001525879</ele>
        <time>2014-03-30T10:38:45Z</time>
      </trkpt>
      <trkpt lat="49.09054" lon="2.0664">
        <ele>89.400001525879</ele>
        <time>2014-03-30T10:38:48Z</time>
      </trkpt>
      <trkpt lat="49.09002" lon="2.06536">
        <ele>89</ele>
        <time>2014-03-30T10:39:23Z</time>
      </trkpt>
      <trkpt lat="49.08925" lon="2.06467">
        <ele>86</ele>
        <time>2014-03-30T10:39:46Z</time>
      </trkpt>
      <trkpt lat="49.08901" lon="2.06444">
        <ele>85</ele>
        <time>2014-03-30T10:39:52Z</time>
      </trkpt>
      <trkpt lat="49.08875" lon="2.06421">
        <ele>83.800003051758</ele>
        <time>2014-03-30T10:39:58Z</time>
      </trkpt>
      <trkpt lat="49.08848" lon="2.06396">
        <ele>83.199996948242</ele>
        <time>2014-03-30T10:40:05Z</time>
      </trkpt>
      <trkpt lat="49.08825" lon="2.06417">
        <ele>82.400001525879</ele>
        <time>2014-03-30T10:40:15Z</time>
      </trkpt>
      <trkpt lat="49.08787" lon="2.06485">
        <ele>82.599998474121</ele>
        <time>2014-03-30T10:40:29Z</time>
      </trkpt>
      <trkpt lat="49.08747" lon="2.06557">
        <ele>83.199996948242</ele>
        <time>2014-03-30T10:40:45Z</time>
      </trkpt>
      <trkpt lat="49.08731" lon="2.066">
        <ele>83.800003051758</ele>
        <time>2014-03-30T10:40:56Z</time>
      </trkpt>
      <trkpt lat="49.08713" lon="2.06621">
        <ele>84.400001525879</ele>
        <time>2014-03-30T10:41:02Z</time>
      </trkpt>
      <trkpt lat="49.08693" lon="2.06639">
        <ele>85.599998474121</ele>
        <time>2014-03-30T10:41:08Z</time>
      </trkpt>
      <trkpt lat="49.08678" lon="2.06646">
        <ele>86.599998474121</ele>
        <time>2014-03-30T10:41:12Z</time>
      </trkpt>
      <trkpt lat="49.08649" lon="2.06632">
        <ele>86.599998474121</ele>
        <time>2014-03-30T10:41:19Z</time>
      </trkpt>
      <trkpt lat="49.08574" lon="2.0657">
        <ele>85.400001525879</ele>
        <time>2014-03-30T10:41:37Z</time>
      </trkpt>
      <trkpt lat="49.08527" lon="2.0654">
        <ele>85.400001525879</ele>
        <time>2014-03-30T10:41:52Z</time>
      </trkpt>
      <trkpt lat="49.08494" lon="2.0652">
        <ele>86.400001525879</ele>
        <time>2014-03-30T10:42:20Z</time>
      </trkpt>
      <trkpt lat="49.08448" lon="2.06484">
        <ele>86</ele>
        <time>2014-03-30T10:42:45Z</time>
      </trkpt>
      <trkpt lat="49.08386" lon="2.0644">
        <ele>85.599998474121</ele>
        <time>2014-03-30T10:42:58Z</time>
      </trkpt>
      <trkpt lat="49.08348" lon="2.06406">
        <ele>84</ele>
        <time>2014-03-30T10:43:06Z</time>
      </trkpt>
      <trkpt lat="49.08337" lon="2.064">
        <ele>83.199996948242</ele>
        <time>2014-03-30T10:43:08Z</time>
      </trkpt>
      <trkpt lat="49.08326" lon="2.06395">
        <ele>83</ele>
        <time>2014-03-30T10:43:10Z</time>
      </trkpt>
      <trkpt lat="49.08303" lon="2.06399">
        <ele>82</ele>
        <time>2014-03-30T10:43:14Z</time>
      </trkpt>
      <trkpt lat="49.08223" lon="2.06407">
        <ele>78.599998474121</ele>
        <time>2014-03-30T10:43:26Z</time>
      </trkpt>
      <trkpt lat="49.08217" lon="2.06408">
        <ele>78.400001525879</ele>
        <time>2014-03-30T10:43:27Z</time>
      </trkpt>
      <trkpt lat="49.08204" lon="2.06407">
        <ele>78</ele>
        <time>2014-03-30T10:43:29Z</time>
      </trkpt>
      <trkpt lat="49.08143" lon="2.06392">
        <ele>75</ele>
        <time>2014-03-30T10:43:38Z</time>
      </trkpt>
      <trkpt lat="49.08071" lon="2.06372">
        <ele>73.599998474121</ele>
        <time>2014-03-30T10:43:48Z</time>
      </trkpt>
      <trkpt lat="49.08021" lon="2.06364">
        <ele>72.599998474121</ele>
        <time>2014-03-30T10:43:56Z</time>
      </trkpt>
      <trkpt lat="49.07989" lon="2.06367">
        <ele>72.199996948242</ele>
        <time>2014-03-30T10:44:01Z</time>
      </trkpt>
      <trkpt lat="49.07923" lon="2.06356">
        <ele>71.199996948242</ele>
        <time>2014-03-30T10:44:12Z</time>
      </trkpt>
      <trkpt lat="49.07883" lon="2.06344">
        <ele>70.400001525879</ele>
        <time>2014-03-30T10:44:18Z</time>
      </trkpt>
      <trkpt lat="49.07821" lon="2.06354">
        <ele>68.599998474121</ele>
        <time>2014-03-30T10:44:26Z</time>
      </trkpt>
      <trkpt lat="49.07756" lon="2.06366">
        <ele>65.400001525879</ele>
        <time>2014-03-30T10:44:33Z</time>
      </trkpt>
      <trkpt lat="49.07665" lon="2.06373">
        <ele>66.599998474121</ele>
        <time>2014-03-30T10:44:43Z</time>
      </trkpt>
      <trkpt lat="49.07641" lon="2.06379">
        <ele>67.599998474121</ele>
        <time>2014-03-30T10:44:46Z</time>
      </trkpt>
      <trkpt lat="49.0753" lon="2.06416">
        <ele>69.800003051758</ele>
        <time>2014-03-30T10:45:01Z</time>
      </trkpt>
      <trkpt lat="49.0737" lon="2.06505">
        <ele>70.199996948242</ele>
        <time>2014-03-30T10:45:28Z</time>
      </trkpt>
      <trkpt lat="49.07298" lon="2.06524">
        <ele>71.199996948242</ele>
        <time>2014-03-30T10:45:47Z</time>
      </trkpt>
      <trkpt lat="49.07249" lon="2.06542">
        <ele>73</ele>
        <time>2014-03-30T10:46:10Z</time>
      </trkpt>
      <trkpt lat="49.072" lon="2.06557">
        <ele>75.599998474121</ele>
        <time>2014-03-30T10:46:30Z</time>
      </trkpt>
      <trkpt lat="49.07162" lon="2.06568">
        <ele>68.800003051758</ele>
        <time>2014-03-30T10:46:46Z</time>
      </trkpt>
      <trkpt lat="49.07154" lon="2.06573">
        <ele>77.199996948242</ele>
        <time>2014-03-30T10:46:49Z</time>
      </trkpt>
      <trkpt lat="49.07071" lon="2.06596">
        <ele>80.400001525879</ele>
        <time>2014-03-30T10:47:13Z</time>
      </trkpt>
      <trkpt lat="49.06924" lon="2.06619">
        <ele>78.400001525879</ele>
        <time>2014-03-30T10:47:47Z</time>
      </trkpt>
      <trkpt lat="49.069" lon="2.0662">
        <ele>77.400001525879</ele>
        <time>2014-03-30T10:47:51Z</time>
      </trkpt>
      <trkpt lat="49.06848" lon="2.06607">
        <ele>74.400001525879</ele>
        <time>2014-03-30T10:47:59Z</time>
      </trkpt>
      <trkpt lat="49.06777" lon="2.06585">
        <ele>70.599998474121</ele>
        <time>2014-03-30T10:48:09Z</time>
      </trkpt>
      <trkpt lat="49.06718" lon="2.06557">
        <ele>67.599998474121</ele>
        <time>2014-03-30T10:48:17Z</time>
      </trkpt>
      <trkpt lat="49.06711" lon="2.06553">
        <ele>67.199996948242</ele>
        <time>2014-03-30T10:48:18Z</time>
      </trkpt>
      <trkpt lat="49.06655" lon="2.06514">
        <ele>63.400001525879</ele>
        <time>2014-03-30T10:48:25Z</time>
      </trkpt>
      <trkpt lat="49.06622" lon="2.06509">
        <ele>59</ele>
        <time>2014-03-30T10:48:28Z</time>
      </trkpt>
      <trkpt lat="49.06598" lon="2.06518">
        <ele>55.799999237061</ele>
        <time>2014-03-30T10:48:30Z</time>
      </trkpt>
      <trkpt lat="49.06579" lon="2.06526">
        <ele>54.200000762939</ele>
        <time>2014-03-30T10:48:32Z</time>
      </trkpt>
      <trkpt lat="49.06571" lon="2.06527">
        <ele>54</ele>
        <time>2014-03-30T10:48:33Z</time>
      </trkpt>
      <trkpt lat="49.06555" lon="2.06527">
        <ele>53.799999237061</ele>
        <time>2014-03-30T10:48:35Z</time>
      </trkpt>
      <trkpt lat="49.06529" lon="2.06524">
        <ele>51.599998474121</ele>
        <time>2014-03-30T10:48:41Z</time>
      </trkpt>
      <trkpt lat="49.06517" lon="2.06532">
        <ele>50.799999237061</ele>
        <time>2014-03-30T10:48:57Z</time>
      </trkpt>
      <trkpt lat="49.0651" lon="2.06538">
        <ele>50.599998474121</ele>
        <time>2014-03-30T10:48:59Z</time>
      </trkpt>
      <trkpt lat="49.06435" lon="2.06529">
        <ele>47</ele>
        <time>2014-03-30T10:49:10Z</time>
      </trkpt>
      <trkpt lat="49.06429" lon="2.06523">
        <ele>46.799999237061</ele>
        <time>2014-03-30T10:49:11Z</time>
      </trkpt>
      <trkpt lat="49.06408" lon="2.06504">
        <ele>45.599998474121</ele>
        <time>2014-03-30T10:49:15Z</time>
      </trkpt>
      <trkpt lat="49.06369" lon="2.0647">
        <ele>42</ele>
        <time>2014-03-30T10:49:21Z</time>
      </trkpt>
      <trkpt lat="49.06349" lon="2.06456">
        <ele>40</ele>
        <time>2014-03-30T10:49:24Z</time>
      </trkpt>
      <trkpt lat="49.06332" lon="2.06485">
        <ele>38.799999237061</ele>
        <time>2014-03-30T10:49:29Z</time>
      </trkpt>
      <trkpt lat="49.06327" lon="2.06531">
        <ele>35.200000762939</ele>
        <time>2014-03-30T10:49:33Z</time>
      </trkpt>
      <trkpt lat="49.06328" lon="2.06545">
        <ele>34</ele>
        <time>2014-03-30T10:49:34Z</time>
      </trkpt>
      <trkpt lat="49.0633" lon="2.06587">
        <ele>32.200000762939</ele>
        <time>2014-03-30T10:49:37Z</time>
      </trkpt>
      <trkpt lat="49.06313" lon="2.06644">
        <ele>28.60000038147</ele>
        <time>2014-03-30T10:49:41Z</time>
      </trkpt>
      <trkpt lat="49.06295" lon="2.06663">
        <ele>26.60000038147</ele>
        <time>2014-03-30T10:49:43Z</time>
      </trkpt>
      <trkpt lat="49.06277" lon="2.06682">
        <ele>25.200000762939</ele>
        <time>2014-03-30T10:49:45Z</time>
      </trkpt>
      <trkpt lat="49.06248" lon="2.06718">
        <ele>24</ele>
        <time>2014-03-30T10:49:49Z</time>
      </trkpt>
      <trkpt lat="49.0622" lon="2.06716">
        <ele>23.60000038147</ele>
        <time>2014-03-30T10:49:54Z</time>
      </trkpt>
      <trkpt lat="49.06197" lon="2.06716">
        <ele>24.39999961853</ele>
        <time>2014-03-30T10:50:00Z</time>
      </trkpt>
      <trkpt lat="49.06173" lon="2.06714">
        <ele>35.31640625</ele>
      </trkpt>
      <trkpt lat="49.06144" lon="2.06702">
        <ele>37.0625</ele>
      </trkpt>
      <trkpt lat="49.06124" lon="2.06657">
        <ele>37.921875</ele>
      </trkpt>
      <trkpt lat="49.0611" lon="2.06629">
        <ele>39.14453125</ele>
      </trkpt>
      <trkpt lat="49.06088" lon="2.06636">
        <ele>40.5546875</ele>
      </trkpt>
      <trkpt lat="49.06077" lon="2.06612">
        <ele>41.35546875</ele>
      </trkpt>
      <trkpt lat="49.06081" lon="2.06555">
        <ele>41.21875</ele>
      </trkpt>
      <trkpt lat="49.06104" lon="2.06479">
        <ele>40.28125</ele>
      </trkpt>
      <trkpt lat="49.06136" lon="2.06375">
        <ele>39.00390625</ele>
      </trkpt>
      <trkpt lat="49.06158" lon="2.06306">
        <ele>39.15234375</ele>
      </trkpt>
      <trkpt lat="49.06176" lon="2.06236">
        <ele>39.9765625</ele>
      </trkpt>
      <trkpt lat="49.0619" lon="2.06178">
        <ele>39.24609375</ele>
      </trkpt>
      <trkpt lat="49.06229" lon="2.06025">
        <ele>39.9296875</ele>
      </trkpt>
      <trkpt lat="49.06209" lon="2.06104">
        <ele>39.05859375</ele>
      </trkpt>
      <trkpt lat="49.06255" lon="2.05902">
        <ele>24.39999961853</ele>
        <time>2014-03-30T10:50:04Z</time>
      </trkpt>
      <trkpt lat="49.06273" lon="2.05834">
        <ele>24.39999961853</ele>
        <time>2014-03-30T10:50:08Z</time>
      </trkpt>
      <trkpt lat="49.06215" lon="2.05844">
        <ele>24.39999961853</ele>
        <time>2014-03-30T10:50:13Z</time>
      </trkpt>
      <trkpt lat="49.06227" lon="2.05829">
        <ele>24.799999237061</ele>
        <time>2014-03-30T10:50:16Z</time>
      </trkpt>
      <trkpt lat="49.06262" lon="2.05795">
        <ele>25.39999961853</ele>
        <time>2014-03-30T10:50:24Z</time>
      </trkpt>
    </trkseg>
  </trk>
</gpx>